<?xml version="1.0" encoding="UTF-8" standalone="no" ?>
<gpx xmlns="http://www.topografix.com/GPX/1/1" xmlns:xsi="http://www.w3.org/2001/XMLSchema-instance" xsi:schemaLocation="http://www.topografix.com/GPX/1/1 http://www.topografix.com/GPX/1/1/gpx.xsd" version="1.1" creator="VisuGPX - https://www.visugpx.com">
  <metadata>
    <name>MONT SAINT VALENTIN / COL DE VENCE</name>
    <desc><![CDATA[Belle balade au départ de la Garussière (après la col de Vence) ; assez ombragée et avec une très belle vue depuis le sommet de St Valentin.]]></desc>
  </metadata>
  <trk>
    <name><![CDATA[MONT SAINT VALENTIN / COL DE VENCE_1]]></name>
    <trkseg>
      <trkpt lat="43.76883" lon="7.06847">
        <ele>924</ele>
        <time>2020-09-16T12:26:21Z</time>
      </trkpt>
      <trkpt lat="43.76883" lon="7.06847">
        <ele>669.4</ele>
        <time>2020-09-16T12:26:23Z</time>
      </trkpt>
      <trkpt lat="43.76895" lon="7.06843">
        <ele>923.6</ele>
        <time>2020-09-16T12:26:35Z</time>
      </trkpt>
      <trkpt lat="43.76897" lon="7.06836">
        <ele>923.8</ele>
        <time>2020-09-16T12:26:41Z</time>
      </trkpt>
      <trkpt lat="43.76902" lon="7.06833">
        <ele>923.8</ele>
        <time>2020-09-16T12:26:47Z</time>
      </trkpt>
      <trkpt lat="43.76914" lon="7.06823">
        <ele>923.8</ele>
        <time>2020-09-16T12:26:59Z</time>
      </trkpt>
      <trkpt lat="43.76926" lon="7.06814">
        <ele>924</ele>
        <time>2020-09-16T12:27:13Z</time>
      </trkpt>
      <trkpt lat="43.76935" lon="7.06807">
        <ele>924.5</ele>
        <time>2020-09-16T12:27:21Z</time>
      </trkpt>
      <trkpt lat="43.76947" lon="7.06798">
        <ele>925.6</ele>
        <time>2020-09-16T12:27:31Z</time>
      </trkpt>
      <trkpt lat="43.76952" lon="7.06794">
        <ele>926.7</ele>
        <time>2020-09-16T12:27:36Z</time>
      </trkpt>
      <trkpt lat="43.7696" lon="7.06787">
        <ele>927.4</ele>
        <time>2020-09-16T12:27:45Z</time>
      </trkpt>
      <trkpt lat="43.76965" lon="7.06784">
        <ele>928</ele>
        <time>2020-09-16T12:27:50Z</time>
      </trkpt>
      <trkpt lat="43.76974" lon="7.0678">
        <ele>928.1</ele>
        <time>2020-09-16T12:27:58Z</time>
      </trkpt>
      <trkpt lat="43.76979" lon="7.06776">
        <ele>928.1</ele>
        <time>2020-09-16T12:28:02Z</time>
      </trkpt>
      <trkpt lat="43.76983" lon="7.06772">
        <ele>928.1</ele>
        <time>2020-09-16T12:28:06Z</time>
      </trkpt>
      <trkpt lat="43.76988" lon="7.06762">
        <ele>928.1</ele>
        <time>2020-09-16T12:28:14Z</time>
      </trkpt>
      <trkpt lat="43.76995" lon="7.0675">
        <ele>928.1</ele>
        <time>2020-09-16T12:28:24Z</time>
      </trkpt>
      <trkpt lat="43.77004" lon="7.06734">
        <ele>928.1</ele>
        <time>2020-09-16T12:28:35Z</time>
      </trkpt>
      <trkpt lat="43.77007" lon="7.0673">
        <ele>928.1</ele>
        <time>2020-09-16T12:28:41Z</time>
      </trkpt>
      <trkpt lat="43.77012" lon="7.06728">
        <ele>928.2</ele>
        <time>2020-09-16T12:28:45Z</time>
      </trkpt>
      <trkpt lat="43.7702" lon="7.06712">
        <ele>930</ele>
        <time>2020-09-16T12:29:00Z</time>
      </trkpt>
      <trkpt lat="43.77024" lon="7.06708">
        <ele>931</ele>
        <time>2020-09-16T12:29:04Z</time>
      </trkpt>
      <trkpt lat="43.77037" lon="7.06702">
        <ele>931.4</ele>
        <time>2020-09-16T12:29:15Z</time>
      </trkpt>
      <trkpt lat="43.77043" lon="7.067">
        <ele>931.7</ele>
        <time>2020-09-16T12:29:19Z</time>
      </trkpt>
      <trkpt lat="43.77054" lon="7.0669">
        <ele>932</ele>
        <time>2020-09-16T12:29:31Z</time>
      </trkpt>
      <trkpt lat="43.77059" lon="7.06691">
        <ele>932.3</ele>
        <time>2020-09-16T12:29:37Z</time>
      </trkpt>
      <trkpt lat="43.77072" lon="7.06682">
        <ele>932.9</ele>
        <time>2020-09-16T12:29:49Z</time>
      </trkpt>
      <trkpt lat="43.7708" lon="7.06677">
        <ele>934.2</ele>
        <time>2020-09-16T12:29:58Z</time>
      </trkpt>
      <trkpt lat="43.77091" lon="7.06665">
        <ele>934.6</ele>
        <time>2020-09-16T12:30:12Z</time>
      </trkpt>
      <trkpt lat="43.771" lon="7.06651">
        <ele>935.1</ele>
        <time>2020-09-16T12:30:24Z</time>
      </trkpt>
      <trkpt lat="43.77108" lon="7.06638">
        <ele>937.1</ele>
        <time>2020-09-16T12:30:33Z</time>
      </trkpt>
      <trkpt lat="43.77111" lon="7.06629">
        <ele>937.9</ele>
        <time>2020-09-16T12:30:39Z</time>
      </trkpt>
      <trkpt lat="43.77115" lon="7.06625">
        <ele>938.4</ele>
        <time>2020-09-16T12:30:45Z</time>
      </trkpt>
      <trkpt lat="43.77119" lon="7.0662">
        <ele>938.7</ele>
        <time>2020-09-16T12:30:50Z</time>
      </trkpt>
      <trkpt lat="43.77128" lon="7.06606">
        <ele>939.6</ele>
        <time>2020-09-16T12:31:02Z</time>
      </trkpt>
      <trkpt lat="43.77135" lon="7.06596">
        <ele>943</ele>
        <time>2020-09-16T12:31:13Z</time>
      </trkpt>
      <trkpt lat="43.77139" lon="7.06592">
        <ele>943.1</ele>
        <time>2020-09-16T12:31:18Z</time>
      </trkpt>
      <trkpt lat="43.77147" lon="7.06587">
        <ele>943.1</ele>
        <time>2020-09-16T12:31:30Z</time>
      </trkpt>
      <trkpt lat="43.77151" lon="7.06578">
        <ele>943.1</ele>
        <time>2020-09-16T12:31:38Z</time>
      </trkpt>
      <trkpt lat="43.77149" lon="7.06565">
        <ele>943.1</ele>
        <time>2020-09-16T12:31:48Z</time>
      </trkpt>
      <trkpt lat="43.77153" lon="7.06545">
        <ele>942.4</ele>
        <time>2020-09-16T12:32:08Z</time>
      </trkpt>
      <trkpt lat="43.77149" lon="7.06519">
        <ele>942.4</ele>
        <time>2020-09-16T12:32:25Z</time>
      </trkpt>
      <trkpt lat="43.77149" lon="7.06493">
        <ele>943</ele>
        <time>2020-09-16T12:32:40Z</time>
      </trkpt>
      <trkpt lat="43.77143" lon="7.06469">
        <ele>945.4</ele>
        <time>2020-09-16T12:32:54Z</time>
      </trkpt>
      <trkpt lat="43.77136" lon="7.06445">
        <ele>947.8</ele>
        <time>2020-09-16T12:33:08Z</time>
      </trkpt>
      <trkpt lat="43.77139" lon="7.06426">
        <ele>948.3</ele>
        <time>2020-09-16T12:33:20Z</time>
      </trkpt>
      <trkpt lat="43.77142" lon="7.0642">
        <ele>948.8</ele>
        <time>2020-09-16T12:33:24Z</time>
      </trkpt>
      <trkpt lat="43.77148" lon="7.06411">
        <ele>949.5</ele>
        <time>2020-09-16T12:33:33Z</time>
      </trkpt>
      <trkpt lat="43.77149" lon="7.06403">
        <ele>951.4</ele>
        <time>2020-09-16T12:33:41Z</time>
      </trkpt>
      <trkpt lat="43.77148" lon="7.06396">
        <ele>953.2</ele>
        <time>2020-09-16T12:33:46Z</time>
      </trkpt>
      <trkpt lat="43.77143" lon="7.06392">
        <ele>954</ele>
        <time>2020-09-16T12:33:52Z</time>
      </trkpt>
      <trkpt lat="43.77137" lon="7.06374">
        <ele>957.4</ele>
        <time>2020-09-16T12:34:04Z</time>
      </trkpt>
      <trkpt lat="43.77128" lon="7.0636">
        <ele>960</ele>
        <time>2020-09-16T12:34:17Z</time>
      </trkpt>
      <trkpt lat="43.77126" lon="7.06354">
        <ele>960.3</ele>
        <time>2020-09-16T12:34:21Z</time>
      </trkpt>
      <trkpt lat="43.77122" lon="7.06349">
        <ele>961.4</ele>
        <time>2020-09-16T12:34:26Z</time>
      </trkpt>
      <trkpt lat="43.7712" lon="7.06343">
        <ele>961.7</ele>
        <time>2020-09-16T12:34:30Z</time>
      </trkpt>
      <trkpt lat="43.77116" lon="7.06332">
        <ele>961.9</ele>
        <time>2020-09-16T12:34:37Z</time>
      </trkpt>
      <trkpt lat="43.77114" lon="7.06323">
        <ele>962</ele>
        <time>2020-09-16T12:34:43Z</time>
      </trkpt>
      <trkpt lat="43.77114" lon="7.06315">
        <ele>962</ele>
        <time>2020-09-16T12:34:48Z</time>
      </trkpt>
      <trkpt lat="43.77115" lon="7.06301">
        <ele>962.5</ele>
        <time>2020-09-16T12:34:55Z</time>
      </trkpt>
      <trkpt lat="43.77113" lon="7.06293">
        <ele>962.9</ele>
        <time>2020-09-16T12:35:00Z</time>
      </trkpt>
      <trkpt lat="43.77112" lon="7.0628">
        <ele>963.2</ele>
        <time>2020-09-16T12:35:11Z</time>
      </trkpt>
      <trkpt lat="43.77113" lon="7.06273">
        <ele>963.2</ele>
        <time>2020-09-16T12:35:17Z</time>
      </trkpt>
      <trkpt lat="43.77116" lon="7.06261">
        <ele>965.5</ele>
        <time>2020-09-16T12:35:25Z</time>
      </trkpt>
      <trkpt lat="43.77116" lon="7.06247">
        <ele>965.7</ele>
        <time>2020-09-16T12:35:38Z</time>
      </trkpt>
      <trkpt lat="43.77121" lon="7.06235">
        <ele>966.2</ele>
        <time>2020-09-16T12:35:49Z</time>
      </trkpt>
      <trkpt lat="43.77121" lon="7.06229">
        <ele>966.2</ele>
        <time>2020-09-16T12:35:53Z</time>
      </trkpt>
      <trkpt lat="43.77121" lon="7.06216">
        <ele>967.1</ele>
        <time>2020-09-16T12:36:01Z</time>
      </trkpt>
      <trkpt lat="43.77121" lon="7.06209">
        <ele>967.1</ele>
        <time>2020-09-16T12:36:07Z</time>
      </trkpt>
      <trkpt lat="43.77123" lon="7.06195">
        <ele>972.5</ele>
        <time>2020-09-16T12:36:20Z</time>
      </trkpt>
      <trkpt lat="43.77123" lon="7.06182">
        <ele>974.3</ele>
        <time>2020-09-16T12:36:33Z</time>
      </trkpt>
      <trkpt lat="43.77122" lon="7.06167">
        <ele>976</ele>
        <time>2020-09-16T12:36:47Z</time>
      </trkpt>
      <trkpt lat="43.77124" lon="7.06153">
        <ele>977.1</ele>
        <time>2020-09-16T12:36:56Z</time>
      </trkpt>
      <trkpt lat="43.77126" lon="7.06148">
        <ele>978</ele>
        <time>2020-09-16T12:37:00Z</time>
      </trkpt>
      <trkpt lat="43.77126" lon="7.0614">
        <ele>978</ele>
        <time>2020-09-16T12:37:04Z</time>
      </trkpt>
      <trkpt lat="43.77128" lon="7.06126">
        <ele>978.8</ele>
        <time>2020-09-16T12:37:14Z</time>
      </trkpt>
      <trkpt lat="43.77129" lon="7.06117">
        <ele>979.9</ele>
        <time>2020-09-16T12:37:21Z</time>
      </trkpt>
      <trkpt lat="43.7713" lon="7.06098">
        <ele>981</ele>
        <time>2020-09-16T12:37:31Z</time>
      </trkpt>
      <trkpt lat="43.77133" lon="7.06084">
        <ele>981.4</ele>
        <time>2020-09-16T12:37:45Z</time>
      </trkpt>
      <trkpt lat="43.77133" lon="7.06072">
        <ele>981.4</ele>
        <time>2020-09-16T12:37:53Z</time>
      </trkpt>
      <trkpt lat="43.77132" lon="7.06059">
        <ele>981.3</ele>
        <time>2020-09-16T12:38:04Z</time>
      </trkpt>
      <trkpt lat="43.77136" lon="7.06046">
        <ele>981.2</ele>
        <time>2020-09-16T12:38:12Z</time>
      </trkpt>
      <trkpt lat="43.77139" lon="7.06032">
        <ele>980.9</ele>
        <time>2020-09-16T12:38:23Z</time>
      </trkpt>
      <trkpt lat="43.77146" lon="7.06023">
        <ele>980.9</ele>
        <time>2020-09-16T12:38:34Z</time>
      </trkpt>
      <trkpt lat="43.77152" lon="7.06019">
        <ele>980.9</ele>
        <time>2020-09-16T12:38:41Z</time>
      </trkpt>
      <trkpt lat="43.77156" lon="7.06013">
        <ele>980.9</ele>
        <time>2020-09-16T12:38:48Z</time>
      </trkpt>
      <trkpt lat="43.77158" lon="7.05999">
        <ele>981.8</ele>
        <time>2020-09-16T12:38:58Z</time>
      </trkpt>
      <trkpt lat="43.77159" lon="7.0599">
        <ele>985.4</ele>
        <time>2020-09-16T12:39:06Z</time>
      </trkpt>
      <trkpt lat="43.77159" lon="7.05983">
        <ele>985.4</ele>
        <time>2020-09-16T12:39:10Z</time>
      </trkpt>
      <trkpt lat="43.77158" lon="7.05967">
        <ele>988.1</ele>
        <time>2020-09-16T12:39:20Z</time>
      </trkpt>
      <trkpt lat="43.77157" lon="7.0596">
        <ele>988.9</ele>
        <time>2020-09-16T12:39:25Z</time>
      </trkpt>
      <trkpt lat="43.77157" lon="7.05948">
        <ele>989.3</ele>
        <time>2020-09-16T12:39:35Z</time>
      </trkpt>
      <trkpt lat="43.77157" lon="7.05926">
        <ele>989.3</ele>
        <time>2020-09-16T12:39:48Z</time>
      </trkpt>
      <trkpt lat="43.7716" lon="7.05912">
        <ele>989.3</ele>
        <time>2020-09-16T12:39:57Z</time>
      </trkpt>
      <trkpt lat="43.77165" lon="7.05902">
        <ele>989.1</ele>
        <time>2020-09-16T12:40:09Z</time>
      </trkpt>
      <trkpt lat="43.77167" lon="7.05895">
        <ele>987.9</ele>
        <time>2020-09-16T12:40:17Z</time>
      </trkpt>
      <trkpt lat="43.77168" lon="7.05888">
        <ele>986.5</ele>
        <time>2020-09-16T12:40:22Z</time>
      </trkpt>
      <trkpt lat="43.77174" lon="7.0588">
        <ele>986.4</ele>
        <time>2020-09-16T12:40:29Z</time>
      </trkpt>
      <trkpt lat="43.77179" lon="7.05868">
        <ele>986.4</ele>
        <time>2020-09-16T12:40:39Z</time>
      </trkpt>
      <trkpt lat="43.77185" lon="7.05856">
        <ele>986.4</ele>
        <time>2020-09-16T12:40:51Z</time>
      </trkpt>
      <trkpt lat="43.77189" lon="7.05851">
        <ele>987.1</ele>
        <time>2020-09-16T12:40:55Z</time>
      </trkpt>
      <trkpt lat="43.77192" lon="7.05847">
        <ele>988.6</ele>
        <time>2020-09-16T12:40:59Z</time>
      </trkpt>
      <trkpt lat="43.77193" lon="7.05841">
        <ele>989</ele>
        <time>2020-09-16T12:41:04Z</time>
      </trkpt>
      <trkpt lat="43.77195" lon="7.05835">
        <ele>990.6</ele>
        <time>2020-09-16T12:41:09Z</time>
      </trkpt>
      <trkpt lat="43.77198" lon="7.05817">
        <ele>991.4</ele>
        <time>2020-09-16T12:41:26Z</time>
      </trkpt>
      <trkpt lat="43.772" lon="7.0581">
        <ele>991.6</ele>
        <time>2020-09-16T12:41:30Z</time>
      </trkpt>
      <trkpt lat="43.77207" lon="7.05792">
        <ele>992.2</ele>
        <time>2020-09-16T12:41:44Z</time>
      </trkpt>
      <trkpt lat="43.77212" lon="7.05778">
        <ele>993.1</ele>
        <time>2020-09-16T12:41:57Z</time>
      </trkpt>
      <trkpt lat="43.77218" lon="7.05761">
        <ele>994.8</ele>
        <time>2020-09-16T12:42:10Z</time>
      </trkpt>
      <trkpt lat="43.77221" lon="7.05753">
        <ele>996.1</ele>
        <time>2020-09-16T12:42:17Z</time>
      </trkpt>
      <trkpt lat="43.77221" lon="7.05746">
        <ele>996.1</ele>
        <time>2020-09-16T12:42:22Z</time>
      </trkpt>
      <trkpt lat="43.77223" lon="7.05734">
        <ele>996.2</ele>
        <time>2020-09-16T12:42:28Z</time>
      </trkpt>
      <trkpt lat="43.77227" lon="7.0572">
        <ele>997</ele>
        <time>2020-09-16T12:42:40Z</time>
      </trkpt>
      <trkpt lat="43.77231" lon="7.05701">
        <ele>997.5</ele>
        <time>2020-09-16T12:42:55Z</time>
      </trkpt>
      <trkpt lat="43.7723" lon="7.05694">
        <ele>997.6</ele>
        <time>2020-09-16T12:43:01Z</time>
      </trkpt>
      <trkpt lat="43.77234" lon="7.05676">
        <ele>998.2</ele>
        <time>2020-09-16T12:43:15Z</time>
      </trkpt>
      <trkpt lat="43.77238" lon="7.05663">
        <ele>999</ele>
        <time>2020-09-16T12:43:24Z</time>
      </trkpt>
      <trkpt lat="43.77243" lon="7.05653">
        <ele>999.4</ele>
        <time>2020-09-16T12:43:33Z</time>
      </trkpt>
      <trkpt lat="43.77249" lon="7.05643">
        <ele>1000.6</ele>
        <time>2020-09-16T12:43:43Z</time>
      </trkpt>
      <trkpt lat="43.77254" lon="7.05632">
        <ele>1001.6</ele>
        <time>2020-09-16T12:43:53Z</time>
      </trkpt>
      <trkpt lat="43.77258" lon="7.05628">
        <ele>1001.9</ele>
        <time>2020-09-16T12:43:59Z</time>
      </trkpt>
      <trkpt lat="43.77261" lon="7.05623">
        <ele>1001.9</ele>
        <time>2020-09-16T12:44:02Z</time>
      </trkpt>
      <trkpt lat="43.77266" lon="7.05619">
        <ele>1002</ele>
        <time>2020-09-16T12:44:07Z</time>
      </trkpt>
      <trkpt lat="43.7727" lon="7.05615">
        <ele>1002</ele>
        <time>2020-09-16T12:44:13Z</time>
      </trkpt>
      <trkpt lat="43.77278" lon="7.05601">
        <ele>1004.1</ele>
        <time>2020-09-16T12:44:31Z</time>
      </trkpt>
      <trkpt lat="43.77283" lon="7.05588">
        <ele>1005.4</ele>
        <time>2020-09-16T12:44:42Z</time>
      </trkpt>
      <trkpt lat="43.77285" lon="7.05582">
        <ele>1005.6</ele>
        <time>2020-09-16T12:44:47Z</time>
      </trkpt>
      <trkpt lat="43.77286" lon="7.05576">
        <ele>1009</ele>
        <time>2020-09-16T12:45:14Z</time>
      </trkpt>
      <trkpt lat="43.77281" lon="7.05572">
        <ele>1009.1</ele>
        <time>2020-09-16T12:45:35Z</time>
      </trkpt>
      <trkpt lat="43.77285" lon="7.0557">
        <ele>1008.3</ele>
        <time>2020-09-16T12:46:03Z</time>
      </trkpt>
      <trkpt lat="43.77287" lon="7.05576">
        <ele>1008.3</ele>
        <time>2020-09-16T12:46:10Z</time>
      </trkpt>
      <trkpt lat="43.77286" lon="7.05583">
        <ele>1008.3</ele>
        <time>2020-09-16T12:46:14Z</time>
      </trkpt>
      <trkpt lat="43.77285" lon="7.05597">
        <ele>1008.3</ele>
        <time>2020-09-16T12:46:23Z</time>
      </trkpt>
      <trkpt lat="43.77282" lon="7.05601">
        <ele>1008.3</ele>
        <time>2020-09-16T12:46:27Z</time>
      </trkpt>
      <trkpt lat="43.77282" lon="7.05608">
        <ele>1008.3</ele>
        <time>2020-09-16T12:46:32Z</time>
      </trkpt>
      <trkpt lat="43.77281" lon="7.05621">
        <ele>1008.3</ele>
        <time>2020-09-16T12:46:40Z</time>
      </trkpt>
      <trkpt lat="43.77279" lon="7.05635">
        <ele>1009</ele>
        <time>2020-09-16T12:46:50Z</time>
      </trkpt>
      <trkpt lat="43.77278" lon="7.05643">
        <ele>1009.3</ele>
        <time>2020-09-16T12:46:54Z</time>
      </trkpt>
      <trkpt lat="43.77277" lon="7.0565">
        <ele>1009.4</ele>
        <time>2020-09-16T12:46:58Z</time>
      </trkpt>
      <trkpt lat="43.77278" lon="7.05657">
        <ele>1009.4</ele>
        <time>2020-09-16T12:47:02Z</time>
      </trkpt>
      <trkpt lat="43.77278" lon="7.0567">
        <ele>1009.6</ele>
        <time>2020-09-16T12:47:09Z</time>
      </trkpt>
      <trkpt lat="43.77273" lon="7.05683">
        <ele>1011.4</ele>
        <time>2020-09-16T12:47:21Z</time>
      </trkpt>
      <trkpt lat="43.77272" lon="7.05689">
        <ele>1013.1</ele>
        <time>2020-09-16T12:47:25Z</time>
      </trkpt>
      <trkpt lat="43.7727" lon="7.05701">
        <ele>1014.5</ele>
        <time>2020-09-16T12:47:33Z</time>
      </trkpt>
      <trkpt lat="43.7727" lon="7.05721">
        <ele>1015.2</ele>
        <time>2020-09-16T12:47:44Z</time>
      </trkpt>
      <trkpt lat="43.77267" lon="7.05727">
        <ele>1016.2</ele>
        <time>2020-09-16T12:47:50Z</time>
      </trkpt>
      <trkpt lat="43.77267" lon="7.05733">
        <ele>1016.2</ele>
        <time>2020-09-16T12:47:54Z</time>
      </trkpt>
      <trkpt lat="43.77266" lon="7.0574">
        <ele>1016.3</ele>
        <time>2020-09-16T12:47:58Z</time>
      </trkpt>
      <trkpt lat="43.77263" lon="7.05747">
        <ele>1016.7</ele>
        <time>2020-09-16T12:48:04Z</time>
      </trkpt>
      <trkpt lat="43.77262" lon="7.05754">
        <ele>1016.7</ele>
        <time>2020-09-16T12:48:08Z</time>
      </trkpt>
      <trkpt lat="43.77262" lon="7.05769">
        <ele>1017.2</ele>
        <time>2020-09-16T12:48:17Z</time>
      </trkpt>
      <trkpt lat="43.77258" lon="7.05787">
        <ele>1017.6</ele>
        <time>2020-09-16T12:48:28Z</time>
      </trkpt>
      <trkpt lat="43.77255" lon="7.05806">
        <ele>1018.4</ele>
        <time>2020-09-16T12:48:41Z</time>
      </trkpt>
      <trkpt lat="43.77254" lon="7.05813">
        <ele>1018.6</ele>
        <time>2020-09-16T12:48:47Z</time>
      </trkpt>
      <trkpt lat="43.77255" lon="7.05828">
        <ele>1018.7</ele>
        <time>2020-09-16T12:48:59Z</time>
      </trkpt>
      <trkpt lat="43.77254" lon="7.05835">
        <ele>1018.8</ele>
        <time>2020-09-16T12:49:03Z</time>
      </trkpt>
      <trkpt lat="43.77252" lon="7.05854">
        <ele>1019.7</ele>
        <time>2020-09-16T12:49:15Z</time>
      </trkpt>
      <trkpt lat="43.77251" lon="7.05872">
        <ele>1022.4</ele>
        <time>2020-09-16T12:49:28Z</time>
      </trkpt>
      <trkpt lat="43.77249" lon="7.05887">
        <ele>1023.1</ele>
        <time>2020-09-16T12:49:38Z</time>
      </trkpt>
      <trkpt lat="43.77248" lon="7.05894">
        <ele>1023.3</ele>
        <time>2020-09-16T12:49:43Z</time>
      </trkpt>
      <trkpt lat="43.77249" lon="7.05909">
        <ele>1023.9</ele>
        <time>2020-09-16T12:49:52Z</time>
      </trkpt>
      <trkpt lat="43.77249" lon="7.05916">
        <ele>1024.2</ele>
        <time>2020-09-16T12:49:58Z</time>
      </trkpt>
      <trkpt lat="43.77251" lon="7.05929">
        <ele>1025.8</ele>
        <time>2020-09-16T12:50:07Z</time>
      </trkpt>
      <trkpt lat="43.77253" lon="7.05948">
        <ele>1026.7</ele>
        <time>2020-09-16T12:50:18Z</time>
      </trkpt>
      <trkpt lat="43.77253" lon="7.05966">
        <ele>1027.1</ele>
        <time>2020-09-16T12:50:29Z</time>
      </trkpt>
      <trkpt lat="43.77254" lon="7.05979">
        <ele>1029.2</ele>
        <time>2020-09-16T12:50:36Z</time>
      </trkpt>
      <trkpt lat="43.77252" lon="7.05992">
        <ele>1032.6</ele>
        <time>2020-09-16T12:50:45Z</time>
      </trkpt>
      <trkpt lat="43.77249" lon="7.05998">
        <ele>1033.2</ele>
        <time>2020-09-16T12:50:49Z</time>
      </trkpt>
      <trkpt lat="43.77249" lon="7.06012">
        <ele>1033.2</ele>
        <time>2020-09-16T12:50:57Z</time>
      </trkpt>
      <trkpt lat="43.77249" lon="7.06026">
        <ele>1033.2</ele>
        <time>2020-09-16T12:51:07Z</time>
      </trkpt>
      <trkpt lat="43.77252" lon="7.06045">
        <ele>1033.3</ele>
        <time>2020-09-16T12:51:18Z</time>
      </trkpt>
      <trkpt lat="43.77253" lon="7.06052">
        <ele>1033.3</ele>
        <time>2020-09-16T12:51:24Z</time>
      </trkpt>
      <trkpt lat="43.77252" lon="7.06062">
        <ele>1033.3</ele>
        <time>2020-09-16T12:51:30Z</time>
      </trkpt>
      <trkpt lat="43.77256" lon="7.06081">
        <ele>1033.3</ele>
        <time>2020-09-16T12:51:42Z</time>
      </trkpt>
      <trkpt lat="43.77259" lon="7.06086">
        <ele>1033.4</ele>
        <time>2020-09-16T12:51:46Z</time>
      </trkpt>
      <trkpt lat="43.7726" lon="7.06099">
        <ele>1034.1</ele>
        <time>2020-09-16T12:51:55Z</time>
      </trkpt>
      <trkpt lat="43.77261" lon="7.06112">
        <ele>1034.5</ele>
        <time>2020-09-16T12:52:03Z</time>
      </trkpt>
      <trkpt lat="43.77263" lon="7.06131">
        <ele>1035.4</ele>
        <time>2020-09-16T12:52:14Z</time>
      </trkpt>
      <trkpt lat="43.77267" lon="7.06143">
        <ele>1035.6</ele>
        <time>2020-09-16T12:52:22Z</time>
      </trkpt>
      <trkpt lat="43.77268" lon="7.0615">
        <ele>1035.9</ele>
        <time>2020-09-16T12:52:27Z</time>
      </trkpt>
      <trkpt lat="43.77271" lon="7.06155">
        <ele>1036.1</ele>
        <time>2020-09-16T12:52:31Z</time>
      </trkpt>
      <trkpt lat="43.77276" lon="7.06169">
        <ele>1036.4</ele>
        <time>2020-09-16T12:52:41Z</time>
      </trkpt>
      <trkpt lat="43.77281" lon="7.0618">
        <ele>1036.5</ele>
        <time>2020-09-16T12:52:50Z</time>
      </trkpt>
      <trkpt lat="43.77285" lon="7.06191">
        <ele>1036.2</ele>
        <time>2020-09-16T12:52:59Z</time>
      </trkpt>
      <trkpt lat="43.77286" lon="7.06197">
        <ele>1036.2</ele>
        <time>2020-09-16T12:53:03Z</time>
      </trkpt>
      <trkpt lat="43.77287" lon="7.06203">
        <ele>1036.2</ele>
        <time>2020-09-16T12:53:07Z</time>
      </trkpt>
      <trkpt lat="43.77296" lon="7.06219">
        <ele>1036.1</ele>
        <time>2020-09-16T12:53:19Z</time>
      </trkpt>
      <trkpt lat="43.77305" lon="7.06235">
        <ele>1035.9</ele>
        <time>2020-09-16T12:53:31Z</time>
      </trkpt>
      <trkpt lat="43.77308" lon="7.06242">
        <ele>1035.2</ele>
        <time>2020-09-16T12:53:35Z</time>
      </trkpt>
      <trkpt lat="43.7731" lon="7.06248">
        <ele>1035.1</ele>
        <time>2020-09-16T12:53:39Z</time>
      </trkpt>
      <trkpt lat="43.77315" lon="7.06258">
        <ele>1035</ele>
        <time>2020-09-16T12:53:49Z</time>
      </trkpt>
      <trkpt lat="43.7732" lon="7.06272">
        <ele>1034.7</ele>
        <time>2020-09-16T12:53:59Z</time>
      </trkpt>
      <trkpt lat="43.77328" lon="7.06288">
        <ele>1034.6</ele>
        <time>2020-09-16T12:54:10Z</time>
      </trkpt>
      <trkpt lat="43.77334" lon="7.06298">
        <ele>1034.6</ele>
        <time>2020-09-16T12:54:20Z</time>
      </trkpt>
      <trkpt lat="43.77344" lon="7.06302">
        <ele>1034.4</ele>
        <time>2020-09-16T12:54:29Z</time>
      </trkpt>
      <trkpt lat="43.77354" lon="7.06304">
        <ele>1032.5</ele>
        <time>2020-09-16T12:54:38Z</time>
      </trkpt>
      <trkpt lat="43.77361" lon="7.06306">
        <ele>1031.9</ele>
        <time>2020-09-16T12:54:45Z</time>
      </trkpt>
      <trkpt lat="43.77366" lon="7.06309">
        <ele>1031.9</ele>
        <time>2020-09-16T12:54:49Z</time>
      </trkpt>
      <trkpt lat="43.77381" lon="7.06313">
        <ele>1031.5</ele>
        <time>2020-09-16T12:54:59Z</time>
      </trkpt>
      <trkpt lat="43.7739" lon="7.06318">
        <ele>1031.1</ele>
        <time>2020-09-16T12:55:06Z</time>
      </trkpt>
      <trkpt lat="43.77397" lon="7.06326">
        <ele>1030.8</ele>
        <time>2020-09-16T12:55:14Z</time>
      </trkpt>
      <trkpt lat="43.77406" lon="7.06333">
        <ele>1030.8</ele>
        <time>2020-09-16T12:55:23Z</time>
      </trkpt>
      <trkpt lat="43.77415" lon="7.06342">
        <ele>1030.8</ele>
        <time>2020-09-16T12:55:30Z</time>
      </trkpt>
      <trkpt lat="43.77422" lon="7.0635">
        <ele>1030.8</ele>
        <time>2020-09-16T12:55:36Z</time>
      </trkpt>
      <trkpt lat="43.77425" lon="7.06356">
        <ele>1030.8</ele>
        <time>2020-09-16T12:55:41Z</time>
      </trkpt>
      <trkpt lat="43.7743" lon="7.06364">
        <ele>1030.8</ele>
        <time>2020-09-16T12:55:48Z</time>
      </trkpt>
      <trkpt lat="43.77441" lon="7.06376">
        <ele>1031</ele>
        <time>2020-09-16T12:56:04Z</time>
      </trkpt>
      <trkpt lat="43.77445" lon="7.06381">
        <ele>1031.5</ele>
        <time>2020-09-16T12:56:10Z</time>
      </trkpt>
      <trkpt lat="43.77452" lon="7.0639">
        <ele>1031.9</ele>
        <time>2020-09-16T12:56:20Z</time>
      </trkpt>
      <trkpt lat="43.77466" lon="7.06392">
        <ele>1033.7</ele>
        <time>2020-09-16T12:56:34Z</time>
      </trkpt>
      <trkpt lat="43.77469" lon="7.06387">
        <ele>1034</ele>
        <time>2020-09-16T12:56:38Z</time>
      </trkpt>
      <trkpt lat="43.77473" lon="7.06375">
        <ele>1034.2</ele>
        <time>2020-09-16T12:56:47Z</time>
      </trkpt>
      <trkpt lat="43.77476" lon="7.06361">
        <ele>1038.2</ele>
        <time>2020-09-16T12:57:01Z</time>
      </trkpt>
      <trkpt lat="43.77484" lon="7.06345">
        <ele>1043</ele>
        <time>2020-09-16T12:57:19Z</time>
      </trkpt>
      <trkpt lat="43.77489" lon="7.06343">
        <ele>1043.5</ele>
        <time>2020-09-16T12:57:24Z</time>
      </trkpt>
      <trkpt lat="43.77494" lon="7.06344">
        <ele>1044.4</ele>
        <time>2020-09-16T12:57:33Z</time>
      </trkpt>
      <trkpt lat="43.775" lon="7.06355">
        <ele>1046.2</ele>
        <time>2020-09-16T12:57:43Z</time>
      </trkpt>
      <trkpt lat="43.77499" lon="7.06349">
        <ele>1047.2</ele>
        <time>2020-09-16T12:57:56Z</time>
      </trkpt>
      <trkpt lat="43.77495" lon="7.06346">
        <ele>1047.6</ele>
        <time>2020-09-16T12:58:02Z</time>
      </trkpt>
      <trkpt lat="43.775" lon="7.06345">
        <ele>1047.6</ele>
        <time>2020-09-16T12:58:30Z</time>
      </trkpt>
      <trkpt lat="43.77508" lon="7.06352">
        <ele>1047.9</ele>
        <time>2020-09-16T12:58:50Z</time>
      </trkpt>
      <trkpt lat="43.7751" lon="7.06366">
        <ele>1048</ele>
        <time>2020-09-16T12:59:02Z</time>
      </trkpt>
      <trkpt lat="43.77509" lon="7.0638">
        <ele>1048</ele>
        <time>2020-09-16T12:59:11Z</time>
      </trkpt>
      <trkpt lat="43.77509" lon="7.06387">
        <ele>1048</ele>
        <time>2020-09-16T12:59:15Z</time>
      </trkpt>
      <trkpt lat="43.77508" lon="7.06393">
        <ele>1048</ele>
        <time>2020-09-16T12:59:19Z</time>
      </trkpt>
      <trkpt lat="43.77507" lon="7.06404">
        <ele>1048</ele>
        <time>2020-09-16T12:59:26Z</time>
      </trkpt>
      <trkpt lat="43.77511" lon="7.06416">
        <ele>1048</ele>
        <time>2020-09-16T12:59:35Z</time>
      </trkpt>
      <trkpt lat="43.77511" lon="7.06423">
        <ele>1048</ele>
        <time>2020-09-16T12:59:39Z</time>
      </trkpt>
      <trkpt lat="43.77514" lon="7.06442">
        <ele>1048</ele>
        <time>2020-09-16T12:59:51Z</time>
      </trkpt>
      <trkpt lat="43.77517" lon="7.06456">
        <ele>1048</ele>
        <time>2020-09-16T13:00:01Z</time>
      </trkpt>
      <trkpt lat="43.77518" lon="7.06462">
        <ele>1048</ele>
        <time>2020-09-16T13:00:06Z</time>
      </trkpt>
      <trkpt lat="43.77523" lon="7.06473">
        <ele>1048</ele>
        <time>2020-09-16T13:00:15Z</time>
      </trkpt>
      <trkpt lat="43.77528" lon="7.06484">
        <ele>1048.6</ele>
        <time>2020-09-16T13:00:25Z</time>
      </trkpt>
      <trkpt lat="43.77532" lon="7.06488">
        <ele>1048.9</ele>
        <time>2020-09-16T13:00:29Z</time>
      </trkpt>
      <trkpt lat="43.77536" lon="7.065">
        <ele>1050.3</ele>
        <time>2020-09-16T13:00:39Z</time>
      </trkpt>
      <trkpt lat="43.7754" lon="7.06511">
        <ele>1052.4</ele>
        <time>2020-09-16T13:00:47Z</time>
      </trkpt>
      <trkpt lat="43.77543" lon="7.06517">
        <ele>1052.8</ele>
        <time>2020-09-16T13:00:51Z</time>
      </trkpt>
      <trkpt lat="43.77553" lon="7.06527">
        <ele>1053</ele>
        <time>2020-09-16T13:01:04Z</time>
      </trkpt>
      <trkpt lat="43.77561" lon="7.06534">
        <ele>1053.5</ele>
        <time>2020-09-16T13:01:13Z</time>
      </trkpt>
      <trkpt lat="43.7757" lon="7.06539">
        <ele>1054.1</ele>
        <time>2020-09-16T13:01:29Z</time>
      </trkpt>
      <trkpt lat="43.77574" lon="7.06543">
        <ele>1054.1</ele>
        <time>2020-09-16T13:01:56Z</time>
      </trkpt>
      <trkpt lat="43.77576" lon="7.06551">
        <ele>1054.1</ele>
        <time>2020-09-16T13:02:02Z</time>
      </trkpt>
      <trkpt lat="43.77572" lon="7.06557">
        <ele>1054.1</ele>
        <time>2020-09-16T13:02:07Z</time>
      </trkpt>
      <trkpt lat="43.77568" lon="7.0656">
        <ele>1054.2</ele>
        <time>2020-09-16T13:02:12Z</time>
      </trkpt>
      <trkpt lat="43.77568" lon="7.06567">
        <ele>1054.2</ele>
        <time>2020-09-16T13:02:18Z</time>
      </trkpt>
      <trkpt lat="43.77571" lon="7.0658">
        <ele>1054.2</ele>
        <time>2020-09-16T13:02:28Z</time>
      </trkpt>
      <trkpt lat="43.77572" lon="7.06593">
        <ele>1055.9</ele>
        <time>2020-09-16T13:02:41Z</time>
      </trkpt>
      <trkpt lat="43.77576" lon="7.06602">
        <ele>1057.4</ele>
        <time>2020-09-16T13:02:49Z</time>
      </trkpt>
      <trkpt lat="43.77578" lon="7.06609">
        <ele>1057.4</ele>
        <time>2020-09-16T13:02:53Z</time>
      </trkpt>
      <trkpt lat="43.77578" lon="7.06617">
        <ele>1058.2</ele>
        <time>2020-09-16T13:02:59Z</time>
      </trkpt>
      <trkpt lat="43.77573" lon="7.06622">
        <ele>1059.1</ele>
        <time>2020-09-16T13:03:08Z</time>
      </trkpt>
      <trkpt lat="43.77568" lon="7.06626">
        <ele>1060.1</ele>
        <time>2020-09-16T13:03:13Z</time>
      </trkpt>
      <trkpt lat="43.77566" lon="7.06632">
        <ele>1061.5</ele>
        <time>2020-09-16T13:03:20Z</time>
      </trkpt>
      <trkpt lat="43.77571" lon="7.06645">
        <ele>1062.4</ele>
        <time>2020-09-16T13:03:38Z</time>
      </trkpt>
      <trkpt lat="43.77571" lon="7.06652">
        <ele>1062.6</ele>
        <time>2020-09-16T13:03:47Z</time>
      </trkpt>
      <trkpt lat="43.77571" lon="7.06658">
        <ele>1063.2</ele>
        <time>2020-09-16T13:03:53Z</time>
      </trkpt>
      <trkpt lat="43.77577" lon="7.06668">
        <ele>1064.1</ele>
        <time>2020-09-16T13:04:05Z</time>
      </trkpt>
      <trkpt lat="43.7758" lon="7.06674">
        <ele>1065.1</ele>
        <time>2020-09-16T13:04:10Z</time>
      </trkpt>
      <trkpt lat="43.7758" lon="7.0668">
        <ele>1065.8</ele>
        <time>2020-09-16T13:04:15Z</time>
      </trkpt>
      <trkpt lat="43.77579" lon="7.0669">
        <ele>1067.8</ele>
        <time>2020-09-16T13:04:25Z</time>
      </trkpt>
      <trkpt lat="43.77582" lon="7.06702">
        <ele>1069.8</ele>
        <time>2020-09-16T13:04:42Z</time>
      </trkpt>
      <trkpt lat="43.77586" lon="7.06721">
        <ele>1073.4</ele>
        <time>2020-09-16T13:05:01Z</time>
      </trkpt>
      <trkpt lat="43.77589" lon="7.06727">
        <ele>1074.9</ele>
        <time>2020-09-16T13:05:07Z</time>
      </trkpt>
      <trkpt lat="43.77591" lon="7.06734">
        <ele>1076.8</ele>
        <time>2020-09-16T13:05:19Z</time>
      </trkpt>
      <trkpt lat="43.77592" lon="7.0674">
        <ele>1078.3</ele>
        <time>2020-09-16T13:05:30Z</time>
      </trkpt>
      <trkpt lat="43.77591" lon="7.0675">
        <ele>1079.1</ele>
        <time>2020-09-16T13:05:38Z</time>
      </trkpt>
      <trkpt lat="43.77595" lon="7.06755">
        <ele>1079.1</ele>
        <time>2020-09-16T13:05:49Z</time>
      </trkpt>
      <trkpt lat="43.77597" lon="7.0676">
        <ele>1079.1</ele>
        <time>2020-09-16T13:05:57Z</time>
      </trkpt>
      <trkpt lat="43.77599" lon="7.06766">
        <ele>1079.1</ele>
        <time>2020-09-16T13:06:04Z</time>
      </trkpt>
      <trkpt lat="43.77603" lon="7.06772">
        <ele>1079.1</ele>
        <time>2020-09-16T13:06:12Z</time>
      </trkpt>
      <trkpt lat="43.77604" lon="7.06778">
        <ele>1079.6</ele>
        <time>2020-09-16T13:06:18Z</time>
      </trkpt>
      <trkpt lat="43.77601" lon="7.06788">
        <ele>1081.6</ele>
        <time>2020-09-16T13:06:29Z</time>
      </trkpt>
      <trkpt lat="43.77603" lon="7.06802">
        <ele>1083.9</ele>
        <time>2020-09-16T13:06:44Z</time>
      </trkpt>
      <trkpt lat="43.776" lon="7.06807">
        <ele>1084.4</ele>
        <time>2020-09-16T13:06:53Z</time>
      </trkpt>
      <trkpt lat="43.77596" lon="7.06809">
        <ele>1084.8</ele>
        <time>2020-09-16T13:07:00Z</time>
      </trkpt>
      <trkpt lat="43.77592" lon="7.06814">
        <ele>1085.3</ele>
        <time>2020-09-16T13:07:06Z</time>
      </trkpt>
      <trkpt lat="43.77588" lon="7.06817">
        <ele>1085.4</ele>
        <time>2020-09-16T13:07:12Z</time>
      </trkpt>
      <trkpt lat="43.77587" lon="7.06824">
        <ele>1085.6</ele>
        <time>2020-09-16T13:07:17Z</time>
      </trkpt>
      <trkpt lat="43.77587" lon="7.0683">
        <ele>1085.6</ele>
        <time>2020-09-16T13:07:47Z</time>
      </trkpt>
      <trkpt lat="43.77592" lon="7.06828">
        <ele>1083.3</ele>
        <time>2020-09-16T13:09:29Z</time>
      </trkpt>
      <trkpt lat="43.77588" lon="7.06824">
        <ele>1082.2</ele>
        <time>2020-09-16T13:10:56Z</time>
      </trkpt>
      <trkpt lat="43.77582" lon="7.06819">
        <ele>1085.9</ele>
        <time>2020-09-16T13:12:35Z</time>
      </trkpt>
      <trkpt lat="43.77583" lon="7.06827">
        <ele>1086</ele>
        <time>2020-09-16T13:13:09Z</time>
      </trkpt>
      <trkpt lat="43.77588" lon="7.06826">
        <ele>1085.4</ele>
        <time>2020-09-16T13:13:35Z</time>
      </trkpt>
      <trkpt lat="43.77589" lon="7.0682">
        <ele>1085</ele>
        <time>2020-09-16T13:14:07Z</time>
      </trkpt>
      <trkpt lat="43.77585" lon="7.06824">
        <ele>1085.2</ele>
        <time>2020-09-16T13:18:12Z</time>
      </trkpt>
      <trkpt lat="43.77594" lon="7.06818">
        <ele>1085.3</ele>
        <time>2020-09-16T13:18:54Z</time>
      </trkpt>
      <trkpt lat="43.77598" lon="7.0681">
        <ele>1085.3</ele>
        <time>2020-09-16T13:19:04Z</time>
      </trkpt>
      <trkpt lat="43.77603" lon="7.06799">
        <ele>1085.2</ele>
        <time>2020-09-16T13:19:37Z</time>
      </trkpt>
      <trkpt lat="43.77603" lon="7.06792">
        <ele>1085.2</ele>
        <time>2020-09-16T13:19:43Z</time>
      </trkpt>
      <trkpt lat="43.77606" lon="7.06786">
        <ele>1085.2</ele>
        <time>2020-09-16T13:19:47Z</time>
      </trkpt>
      <trkpt lat="43.77605" lon="7.06779">
        <ele>1085.2</ele>
        <time>2020-09-16T13:19:52Z</time>
      </trkpt>
      <trkpt lat="43.77606" lon="7.06765">
        <ele>1085.2</ele>
        <time>2020-09-16T13:20:00Z</time>
      </trkpt>
      <trkpt lat="43.77606" lon="7.06752">
        <ele>1085</ele>
        <time>2020-09-16T13:20:10Z</time>
      </trkpt>
      <trkpt lat="43.776" lon="7.06733">
        <ele>1084.5</ele>
        <time>2020-09-16T13:20:22Z</time>
      </trkpt>
      <trkpt lat="43.77595" lon="7.0672">
        <ele>1082.6</ele>
        <time>2020-09-16T13:20:30Z</time>
      </trkpt>
      <trkpt lat="43.77589" lon="7.06709">
        <ele>1080.4</ele>
        <time>2020-09-16T13:20:39Z</time>
      </trkpt>
      <trkpt lat="43.77584" lon="7.06691">
        <ele>1079.1</ele>
        <time>2020-09-16T13:20:55Z</time>
      </trkpt>
      <trkpt lat="43.77583" lon="7.06678">
        <ele>1078.4</ele>
        <time>2020-09-16T13:21:04Z</time>
      </trkpt>
      <trkpt lat="43.77581" lon="7.06666">
        <ele>1075.3</ele>
        <time>2020-09-16T13:21:20Z</time>
      </trkpt>
      <trkpt lat="43.77577" lon="7.06659">
        <ele>1071.6</ele>
        <time>2020-09-16T13:21:30Z</time>
      </trkpt>
      <trkpt lat="43.77575" lon="7.06651">
        <ele>1069.8</ele>
        <time>2020-09-16T13:21:40Z</time>
      </trkpt>
      <trkpt lat="43.77573" lon="7.06645">
        <ele>1069.8</ele>
        <time>2020-09-16T13:21:44Z</time>
      </trkpt>
      <trkpt lat="43.7757" lon="7.06639">
        <ele>1068.6</ele>
        <time>2020-09-16T13:21:49Z</time>
      </trkpt>
      <trkpt lat="43.77571" lon="7.06626">
        <ele>1068.2</ele>
        <time>2020-09-16T13:21:57Z</time>
      </trkpt>
      <trkpt lat="43.77576" lon="7.06614">
        <ele>1066.9</ele>
        <time>2020-09-16T13:22:05Z</time>
      </trkpt>
      <trkpt lat="43.77575" lon="7.06601">
        <ele>1064</ele>
        <time>2020-09-16T13:22:20Z</time>
      </trkpt>
      <trkpt lat="43.77572" lon="7.06589">
        <ele>1062.6</ele>
        <time>2020-09-16T13:22:27Z</time>
      </trkpt>
      <trkpt lat="43.7757" lon="7.06577">
        <ele>1062.2</ele>
        <time>2020-09-16T13:22:34Z</time>
      </trkpt>
      <trkpt lat="43.77571" lon="7.06569">
        <ele>1062.2</ele>
        <time>2020-09-16T13:22:38Z</time>
      </trkpt>
      <trkpt lat="43.77574" lon="7.06557">
        <ele>1061.4</ele>
        <time>2020-09-16T13:22:46Z</time>
      </trkpt>
      <trkpt lat="43.77576" lon="7.06551">
        <ele>1060.9</ele>
        <time>2020-09-16T13:22:51Z</time>
      </trkpt>
      <trkpt lat="43.77576" lon="7.06544">
        <ele>1059.4</ele>
        <time>2020-09-16T13:22:57Z</time>
      </trkpt>
      <trkpt lat="43.77572" lon="7.06539">
        <ele>1056</ele>
        <time>2020-09-16T13:23:15Z</time>
      </trkpt>
      <trkpt lat="43.77559" lon="7.06535">
        <ele>1054.4</ele>
        <time>2020-09-16T13:23:25Z</time>
      </trkpt>
      <trkpt lat="43.77553" lon="7.06532">
        <ele>1054.3</ele>
        <time>2020-09-16T13:23:31Z</time>
      </trkpt>
      <trkpt lat="43.7755" lon="7.06527">
        <ele>1054.3</ele>
        <time>2020-09-16T13:23:34Z</time>
      </trkpt>
      <trkpt lat="43.77546" lon="7.06521">
        <ele>1054.3</ele>
        <time>2020-09-16T13:23:39Z</time>
      </trkpt>
      <trkpt lat="43.77544" lon="7.06514">
        <ele>1054.3</ele>
        <time>2020-09-16T13:23:43Z</time>
      </trkpt>
      <trkpt lat="43.7754" lon="7.06503">
        <ele>1054.2</ele>
        <time>2020-09-16T13:23:54Z</time>
      </trkpt>
      <trkpt lat="43.77532" lon="7.06487">
        <ele>1054.1</ele>
        <time>2020-09-16T13:24:04Z</time>
      </trkpt>
      <trkpt lat="43.7753" lon="7.06477">
        <ele>1054.1</ele>
        <time>2020-09-16T13:24:12Z</time>
      </trkpt>
      <trkpt lat="43.77528" lon="7.06472">
        <ele>1054</ele>
        <time>2020-09-16T13:24:20Z</time>
      </trkpt>
      <trkpt lat="43.77525" lon="7.06465">
        <ele>1053.2</ele>
        <time>2020-09-16T13:24:25Z</time>
      </trkpt>
      <trkpt lat="43.77519" lon="7.06455">
        <ele>1053</ele>
        <time>2020-09-16T13:24:34Z</time>
      </trkpt>
      <trkpt lat="43.77518" lon="7.06449">
        <ele>1052.8</ele>
        <time>2020-09-16T13:24:38Z</time>
      </trkpt>
      <trkpt lat="43.77516" lon="7.06443">
        <ele>1052.8</ele>
        <time>2020-09-16T13:24:42Z</time>
      </trkpt>
      <trkpt lat="43.77514" lon="7.06429">
        <ele>1052.4</ele>
        <time>2020-09-16T13:24:52Z</time>
      </trkpt>
      <trkpt lat="43.77514" lon="7.06421">
        <ele>1051.5</ele>
        <time>2020-09-16T13:24:57Z</time>
      </trkpt>
      <trkpt lat="43.7751" lon="7.06403">
        <ele>1049.2</ele>
        <time>2020-09-16T13:25:08Z</time>
      </trkpt>
      <trkpt lat="43.77508" lon="7.06384">
        <ele>1048</ele>
        <time>2020-09-16T13:25:20Z</time>
      </trkpt>
      <trkpt lat="43.77508" lon="7.0637">
        <ele>1048</ele>
        <time>2020-09-16T13:25:29Z</time>
      </trkpt>
      <trkpt lat="43.77506" lon="7.06358">
        <ele>1048</ele>
        <time>2020-09-16T13:25:36Z</time>
      </trkpt>
      <trkpt lat="43.77505" lon="7.06351">
        <ele>1048</ele>
        <time>2020-09-16T13:25:40Z</time>
      </trkpt>
      <trkpt lat="43.77496" lon="7.06345">
        <ele>1048</ele>
        <time>2020-09-16T13:25:50Z</time>
      </trkpt>
      <trkpt lat="43.7749" lon="7.06342">
        <ele>1048</ele>
        <time>2020-09-16T13:25:58Z</time>
      </trkpt>
      <trkpt lat="43.77485" lon="7.06341">
        <ele>1048</ele>
        <time>2020-09-16T13:26:02Z</time>
      </trkpt>
      <trkpt lat="43.7748" lon="7.06339">
        <ele>1048</ele>
        <time>2020-09-16T13:26:07Z</time>
      </trkpt>
      <trkpt lat="43.77476" lon="7.06343">
        <ele>1047.3</ele>
        <time>2020-09-16T13:26:47Z</time>
      </trkpt>
      <trkpt lat="43.77483" lon="7.06341">
        <ele>1046.7</ele>
        <time>2020-09-16T13:28:10Z</time>
      </trkpt>
      <trkpt lat="43.77481" lon="7.06335">
        <ele>1046.8</ele>
        <time>2020-09-16T13:28:22Z</time>
      </trkpt>
      <trkpt lat="43.77484" lon="7.0633">
        <ele>1046.9</ele>
        <time>2020-09-16T13:28:32Z</time>
      </trkpt>
      <trkpt lat="43.77488" lon="7.06328">
        <ele>1047.1</ele>
        <time>2020-09-16T13:28:36Z</time>
      </trkpt>
      <trkpt lat="43.77499" lon="7.06326">
        <ele>1047.2</ele>
        <time>2020-09-16T13:28:45Z</time>
      </trkpt>
      <trkpt lat="43.7751" lon="7.0633">
        <ele>1048</ele>
        <time>2020-09-16T13:28:55Z</time>
      </trkpt>
      <trkpt lat="43.77515" lon="7.0633">
        <ele>1048.6</ele>
        <time>2020-09-16T13:29:01Z</time>
      </trkpt>
      <trkpt lat="43.77529" lon="7.0634">
        <ele>1048.7</ele>
        <time>2020-09-16T13:29:13Z</time>
      </trkpt>
      <trkpt lat="43.77537" lon="7.06344">
        <ele>1048.7</ele>
        <time>2020-09-16T13:29:20Z</time>
      </trkpt>
      <trkpt lat="43.77552" lon="7.06347">
        <ele>1048.9</ele>
        <time>2020-09-16T13:29:31Z</time>
      </trkpt>
      <trkpt lat="43.77564" lon="7.06355">
        <ele>1049</ele>
        <time>2020-09-16T13:29:45Z</time>
      </trkpt>
      <trkpt lat="43.77574" lon="7.06354">
        <ele>1049</ele>
        <time>2020-09-16T13:29:51Z</time>
      </trkpt>
      <trkpt lat="43.77586" lon="7.06361">
        <ele>1049.1</ele>
        <time>2020-09-16T13:30:02Z</time>
      </trkpt>
      <trkpt lat="43.776" lon="7.0636">
        <ele>1049.1</ele>
        <time>2020-09-16T13:30:17Z</time>
      </trkpt>
      <trkpt lat="43.77614" lon="7.06358">
        <ele>1048.6</ele>
        <time>2020-09-16T13:30:29Z</time>
      </trkpt>
      <trkpt lat="43.77627" lon="7.06357">
        <ele>1045.2</ele>
        <time>2020-09-16T13:30:50Z</time>
      </trkpt>
      <trkpt lat="43.77636" lon="7.06353">
        <ele>1042.9</ele>
        <time>2020-09-16T13:31:00Z</time>
      </trkpt>
      <trkpt lat="43.77641" lon="7.06351">
        <ele>1042</ele>
        <time>2020-09-16T13:31:07Z</time>
      </trkpt>
      <trkpt lat="43.77647" lon="7.06349">
        <ele>1040.9</ele>
        <time>2020-09-16T13:31:13Z</time>
      </trkpt>
      <trkpt lat="43.7765" lon="7.06343">
        <ele>1040.4</ele>
        <time>2020-09-16T13:31:20Z</time>
      </trkpt>
      <trkpt lat="43.77654" lon="7.06339">
        <ele>1039.7</ele>
        <time>2020-09-16T13:31:26Z</time>
      </trkpt>
      <trkpt lat="43.77658" lon="7.06333">
        <ele>1039.4</ele>
        <time>2020-09-16T13:31:36Z</time>
      </trkpt>
      <trkpt lat="43.77668" lon="7.06329">
        <ele>1039</ele>
        <time>2020-09-16T13:31:54Z</time>
      </trkpt>
      <trkpt lat="43.77677" lon="7.06325">
        <ele>1038.8</ele>
        <time>2020-09-16T13:32:00Z</time>
      </trkpt>
      <trkpt lat="43.77682" lon="7.06322">
        <ele>1038.6</ele>
        <time>2020-09-16T13:32:07Z</time>
      </trkpt>
      <trkpt lat="43.77691" lon="7.0632">
        <ele>1038.5</ele>
        <time>2020-09-16T13:32:18Z</time>
      </trkpt>
      <trkpt lat="43.77698" lon="7.06313">
        <ele>1037.5</ele>
        <time>2020-09-16T13:32:31Z</time>
      </trkpt>
      <trkpt lat="43.77702" lon="7.0631">
        <ele>1037.1</ele>
        <time>2020-09-16T13:32:34Z</time>
      </trkpt>
      <trkpt lat="43.77708" lon="7.06307">
        <ele>1036.7</ele>
        <time>2020-09-16T13:32:42Z</time>
      </trkpt>
      <trkpt lat="43.77725" lon="7.06302">
        <ele>1035.4</ele>
        <time>2020-09-16T13:33:02Z</time>
      </trkpt>
      <trkpt lat="43.77738" lon="7.06284">
        <ele>1030.5</ele>
        <time>2020-09-16T13:33:24Z</time>
      </trkpt>
      <trkpt lat="43.77754" lon="7.06272">
        <ele>1028.1</ele>
        <time>2020-09-16T13:33:42Z</time>
      </trkpt>
      <trkpt lat="43.77767" lon="7.06258">
        <ele>1027.5</ele>
        <time>2020-09-16T13:34:01Z</time>
      </trkpt>
      <trkpt lat="43.77779" lon="7.06247">
        <ele>1024.2</ele>
        <time>2020-09-16T13:34:20Z</time>
      </trkpt>
      <trkpt lat="43.77792" lon="7.06238">
        <ele>1023.5</ele>
        <time>2020-09-16T13:34:31Z</time>
      </trkpt>
      <trkpt lat="43.77804" lon="7.06229">
        <ele>1022.8</ele>
        <time>2020-09-16T13:34:47Z</time>
      </trkpt>
      <trkpt lat="43.77809" lon="7.06226">
        <ele>1021.1</ele>
        <time>2020-09-16T13:34:52Z</time>
      </trkpt>
      <trkpt lat="43.77818" lon="7.0622">
        <ele>1018.2</ele>
        <time>2020-09-16T13:35:03Z</time>
      </trkpt>
      <trkpt lat="43.77823" lon="7.06213">
        <ele>1016.7</ele>
        <time>2020-09-16T13:35:11Z</time>
      </trkpt>
      <trkpt lat="43.77828" lon="7.0621">
        <ele>1016.7</ele>
        <time>2020-09-16T13:35:14Z</time>
      </trkpt>
      <trkpt lat="43.77835" lon="7.06204">
        <ele>1015.4</ele>
        <time>2020-09-16T13:35:23Z</time>
      </trkpt>
      <trkpt lat="43.7784" lon="7.06201">
        <ele>1015.1</ele>
        <time>2020-09-16T13:35:28Z</time>
      </trkpt>
      <trkpt lat="43.77849" lon="7.06186">
        <ele>1014.3</ele>
        <time>2020-09-16T13:35:41Z</time>
      </trkpt>
      <trkpt lat="43.77853" lon="7.06182">
        <ele>1013</ele>
        <time>2020-09-16T13:35:48Z</time>
      </trkpt>
      <trkpt lat="43.7786" lon="7.06174">
        <ele>1010.7</ele>
        <time>2020-09-16T13:36:00Z</time>
      </trkpt>
      <trkpt lat="43.77864" lon="7.06171">
        <ele>1010.2</ele>
        <time>2020-09-16T13:36:07Z</time>
      </trkpt>
      <trkpt lat="43.77875" lon="7.06168">
        <ele>1009</ele>
        <time>2020-09-16T13:36:18Z</time>
      </trkpt>
      <trkpt lat="43.77884" lon="7.0616">
        <ele>1007.4</ele>
        <time>2020-09-16T13:36:28Z</time>
      </trkpt>
      <trkpt lat="43.77892" lon="7.06154">
        <ele>1006</ele>
        <time>2020-09-16T13:36:40Z</time>
      </trkpt>
      <trkpt lat="43.77903" lon="7.06143">
        <ele>1004.2</ele>
        <time>2020-09-16T13:36:51Z</time>
      </trkpt>
      <trkpt lat="43.77909" lon="7.06137">
        <ele>1003.8</ele>
        <time>2020-09-16T13:36:59Z</time>
      </trkpt>
      <trkpt lat="43.77925" lon="7.06123">
        <ele>1003.6</ele>
        <time>2020-09-16T13:37:17Z</time>
      </trkpt>
      <trkpt lat="43.77941" lon="7.06112">
        <ele>1002.9</ele>
        <time>2020-09-16T13:37:31Z</time>
      </trkpt>
      <trkpt lat="43.77956" lon="7.06101">
        <ele>1001.4</ele>
        <time>2020-09-16T13:37:47Z</time>
      </trkpt>
      <trkpt lat="43.77961" lon="7.06098">
        <ele>1001.4</ele>
        <time>2020-09-16T13:37:57Z</time>
      </trkpt>
      <trkpt lat="43.77964" lon="7.06088">
        <ele>999.7</ele>
        <time>2020-09-16T13:38:13Z</time>
      </trkpt>
      <trkpt lat="43.77971" lon="7.0609">
        <ele>997.9</ele>
        <time>2020-09-16T13:38:41Z</time>
      </trkpt>
      <trkpt lat="43.77967" lon="7.06087">
        <ele>996.6</ele>
        <time>2020-09-16T13:39:29Z</time>
      </trkpt>
      <trkpt lat="43.77963" lon="7.06089">
        <ele>996.9</ele>
        <time>2020-09-16T13:39:41Z</time>
      </trkpt>
      <trkpt lat="43.77963" lon="7.06083">
        <ele>997.1</ele>
        <time>2020-09-16T13:39:54Z</time>
      </trkpt>
      <trkpt lat="43.77968" lon="7.06065">
        <ele>997.7</ele>
        <time>2020-09-16T13:40:08Z</time>
      </trkpt>
      <trkpt lat="43.77971" lon="7.06059">
        <ele>997.7</ele>
        <time>2020-09-16T13:40:13Z</time>
      </trkpt>
      <trkpt lat="43.77973" lon="7.06053">
        <ele>997.7</ele>
        <time>2020-09-16T13:40:16Z</time>
      </trkpt>
      <trkpt lat="43.77974" lon="7.06047">
        <ele>997.7</ele>
        <time>2020-09-16T13:40:20Z</time>
      </trkpt>
      <trkpt lat="43.77977" lon="7.06035">
        <ele>998</ele>
        <time>2020-09-16T13:40:28Z</time>
      </trkpt>
      <trkpt lat="43.77977" lon="7.06022">
        <ele>998</ele>
        <time>2020-09-16T13:40:34Z</time>
      </trkpt>
      <trkpt lat="43.77976" lon="7.06016">
        <ele>998.1</ele>
        <time>2020-09-16T13:40:38Z</time>
      </trkpt>
      <trkpt lat="43.77971" lon="7.05997">
        <ele>998.1</ele>
        <time>2020-09-16T13:40:50Z</time>
      </trkpt>
      <trkpt lat="43.77969" lon="7.05989">
        <ele>999.1</ele>
        <time>2020-09-16T13:40:54Z</time>
      </trkpt>
      <trkpt lat="43.7797" lon="7.05976">
        <ele>1000.4</ele>
        <time>2020-09-16T13:41:04Z</time>
      </trkpt>
      <trkpt lat="43.77969" lon="7.0597">
        <ele>1001</ele>
        <time>2020-09-16T13:41:08Z</time>
      </trkpt>
      <trkpt lat="43.77962" lon="7.05953">
        <ele>1001.4</ele>
        <time>2020-09-16T13:41:19Z</time>
      </trkpt>
      <trkpt lat="43.77962" lon="7.05945">
        <ele>1001.4</ele>
        <time>2020-09-16T13:41:25Z</time>
      </trkpt>
      <trkpt lat="43.77962" lon="7.05937">
        <ele>1001.4</ele>
        <time>2020-09-16T13:41:30Z</time>
      </trkpt>
      <trkpt lat="43.7796" lon="7.05931">
        <ele>1001.4</ele>
        <time>2020-09-16T13:41:34Z</time>
      </trkpt>
      <trkpt lat="43.77958" lon="7.05924">
        <ele>1001.5</ele>
        <time>2020-09-16T13:41:38Z</time>
      </trkpt>
      <trkpt lat="43.77957" lon="7.05915">
        <ele>1002.4</ele>
        <time>2020-09-16T13:41:45Z</time>
      </trkpt>
      <trkpt lat="43.77955" lon="7.05909">
        <ele>1002.4</ele>
        <time>2020-09-16T13:41:49Z</time>
      </trkpt>
      <trkpt lat="43.7795" lon="7.05905">
        <ele>1003.1</ele>
        <time>2020-09-16T13:41:53Z</time>
      </trkpt>
      <trkpt lat="43.77946" lon="7.05897">
        <ele>1003.3</ele>
        <time>2020-09-16T13:41:59Z</time>
      </trkpt>
      <trkpt lat="43.77941" lon="7.05894">
        <ele>1003.3</ele>
        <time>2020-09-16T13:42:04Z</time>
      </trkpt>
      <trkpt lat="43.77937" lon="7.05882">
        <ele>1003.3</ele>
        <time>2020-09-16T13:42:12Z</time>
      </trkpt>
      <trkpt lat="43.77936" lon="7.05875">
        <ele>1003.3</ele>
        <time>2020-09-16T13:42:18Z</time>
      </trkpt>
      <trkpt lat="43.77934" lon="7.05862">
        <ele>1003.3</ele>
        <time>2020-09-16T13:42:26Z</time>
      </trkpt>
      <trkpt lat="43.77928" lon="7.05843">
        <ele>1003.4</ele>
        <time>2020-09-16T13:42:38Z</time>
      </trkpt>
      <trkpt lat="43.77923" lon="7.05833">
        <ele>1003.4</ele>
        <time>2020-09-16T13:42:44Z</time>
      </trkpt>
      <trkpt lat="43.7792" lon="7.0582">
        <ele>1003.5</ele>
        <time>2020-09-16T13:42:54Z</time>
      </trkpt>
      <trkpt lat="43.77916" lon="7.05807">
        <ele>1004.1</ele>
        <time>2020-09-16T13:43:04Z</time>
      </trkpt>
      <trkpt lat="43.77913" lon="7.05801">
        <ele>1004.4</ele>
        <time>2020-09-16T13:43:09Z</time>
      </trkpt>
      <trkpt lat="43.77908" lon="7.05794">
        <ele>1005.4</ele>
        <time>2020-09-16T13:43:14Z</time>
      </trkpt>
      <trkpt lat="43.77902" lon="7.05785">
        <ele>1006</ele>
        <time>2020-09-16T13:43:22Z</time>
      </trkpt>
      <trkpt lat="43.77898" lon="7.05781">
        <ele>1006.4</ele>
        <time>2020-09-16T13:43:27Z</time>
      </trkpt>
      <trkpt lat="43.77891" lon="7.05768">
        <ele>1007</ele>
        <time>2020-09-16T13:43:37Z</time>
      </trkpt>
      <trkpt lat="43.77885" lon="7.05757">
        <ele>1008.4</ele>
        <time>2020-09-16T13:43:45Z</time>
      </trkpt>
      <trkpt lat="43.77884" lon="7.05749">
        <ele>1009.4</ele>
        <time>2020-09-16T13:43:50Z</time>
      </trkpt>
      <trkpt lat="43.77877" lon="7.05738">
        <ele>1010.9</ele>
        <time>2020-09-16T13:44:02Z</time>
      </trkpt>
      <trkpt lat="43.77879" lon="7.05731">
        <ele>1010.9</ele>
        <time>2020-09-16T13:44:06Z</time>
      </trkpt>
      <trkpt lat="43.77881" lon="7.05725">
        <ele>1011.8</ele>
        <time>2020-09-16T13:44:14Z</time>
      </trkpt>
      <trkpt lat="43.77888" lon="7.05716">
        <ele>1011.8</ele>
        <time>2020-09-16T13:44:24Z</time>
      </trkpt>
      <trkpt lat="43.77897" lon="7.05707">
        <ele>1011.8</ele>
        <time>2020-09-16T13:44:36Z</time>
      </trkpt>
      <trkpt lat="43.77911" lon="7.05708">
        <ele>1011.8</ele>
        <time>2020-09-16T13:44:46Z</time>
      </trkpt>
      <trkpt lat="43.77919" lon="7.05702">
        <ele>1011.4</ele>
        <time>2020-09-16T13:44:59Z</time>
      </trkpt>
      <trkpt lat="43.77919" lon="7.05695">
        <ele>1011.4</ele>
        <time>2020-09-16T13:45:04Z</time>
      </trkpt>
      <trkpt lat="43.77924" lon="7.05677">
        <ele>1010.9</ele>
        <time>2020-09-16T13:45:17Z</time>
      </trkpt>
      <trkpt lat="43.77929" lon="7.05659">
        <ele>1010.5</ele>
        <time>2020-09-16T13:45:28Z</time>
      </trkpt>
      <trkpt lat="43.77937" lon="7.0565">
        <ele>1010.2</ele>
        <time>2020-09-16T13:45:38Z</time>
      </trkpt>
      <trkpt lat="43.7794" lon="7.05638">
        <ele>1010.4</ele>
        <time>2020-09-16T13:45:52Z</time>
      </trkpt>
      <trkpt lat="43.77949" lon="7.05625">
        <ele>1010.6</ele>
        <time>2020-09-16T13:46:12Z</time>
      </trkpt>
      <trkpt lat="43.77952" lon="7.05619">
        <ele>1010.7</ele>
        <time>2020-09-16T13:46:16Z</time>
      </trkpt>
      <trkpt lat="43.77955" lon="7.05609">
        <ele>1011.8</ele>
        <time>2020-09-16T13:46:25Z</time>
      </trkpt>
      <trkpt lat="43.77963" lon="7.05597">
        <ele>1011.8</ele>
        <time>2020-09-16T13:46:42Z</time>
      </trkpt>
      <trkpt lat="43.77968" lon="7.05586">
        <ele>1011.8</ele>
        <time>2020-09-16T13:46:50Z</time>
      </trkpt>
      <trkpt lat="43.77976" lon="7.05576">
        <ele>1011.8</ele>
        <time>2020-09-16T13:46:57Z</time>
      </trkpt>
      <trkpt lat="43.77976" lon="7.05562">
        <ele>1011.8</ele>
        <time>2020-09-16T13:47:06Z</time>
      </trkpt>
      <trkpt lat="43.77973" lon="7.05543">
        <ele>1011.8</ele>
        <time>2020-09-16T13:47:20Z</time>
      </trkpt>
      <trkpt lat="43.77966" lon="7.05527">
        <ele>1011.8</ele>
        <time>2020-09-16T13:47:33Z</time>
      </trkpt>
      <trkpt lat="43.77961" lon="7.05516">
        <ele>1011.8</ele>
        <time>2020-09-16T13:47:42Z</time>
      </trkpt>
      <trkpt lat="43.7796" lon="7.05503">
        <ele>1011.9</ele>
        <time>2020-09-16T13:47:53Z</time>
      </trkpt>
      <trkpt lat="43.77956" lon="7.0549">
        <ele>1012.8</ele>
        <time>2020-09-16T13:48:04Z</time>
      </trkpt>
      <trkpt lat="43.77954" lon="7.05484">
        <ele>1014.7</ele>
        <time>2020-09-16T13:48:09Z</time>
      </trkpt>
      <trkpt lat="43.77948" lon="7.05476">
        <ele>1016</ele>
        <time>2020-09-16T13:48:18Z</time>
      </trkpt>
      <trkpt lat="43.77938" lon="7.0546">
        <ele>1017</ele>
        <time>2020-09-16T13:48:32Z</time>
      </trkpt>
      <trkpt lat="43.77935" lon="7.05454">
        <ele>1017</ele>
        <time>2020-09-16T13:48:39Z</time>
      </trkpt>
      <trkpt lat="43.77927" lon="7.05445">
        <ele>1017</ele>
        <time>2020-09-16T13:48:49Z</time>
      </trkpt>
      <trkpt lat="43.77925" lon="7.05439">
        <ele>1017</ele>
        <time>2020-09-16T13:48:55Z</time>
      </trkpt>
      <trkpt lat="43.77921" lon="7.0543">
        <ele>1017</ele>
        <time>2020-09-16T13:49:04Z</time>
      </trkpt>
      <trkpt lat="43.77917" lon="7.05426">
        <ele>1017</ele>
        <time>2020-09-16T13:49:09Z</time>
      </trkpt>
      <trkpt lat="43.77917" lon="7.05419">
        <ele>1017</ele>
        <time>2020-09-16T13:49:13Z</time>
      </trkpt>
      <trkpt lat="43.77912" lon="7.054">
        <ele>1018.2</ele>
        <time>2020-09-16T13:49:28Z</time>
      </trkpt>
      <trkpt lat="43.77911" lon="7.05393">
        <ele>1019.1</ele>
        <time>2020-09-16T13:49:32Z</time>
      </trkpt>
      <trkpt lat="43.7791" lon="7.05385">
        <ele>1020.4</ele>
        <time>2020-09-16T13:49:37Z</time>
      </trkpt>
      <trkpt lat="43.77911" lon="7.05377">
        <ele>1020.4</ele>
        <time>2020-09-16T13:49:41Z</time>
      </trkpt>
      <trkpt lat="43.77911" lon="7.05366">
        <ele>1022.1</ele>
        <time>2020-09-16T13:49:48Z</time>
      </trkpt>
      <trkpt lat="43.77913" lon="7.05352">
        <ele>1022.1</ele>
        <time>2020-09-16T13:49:57Z</time>
      </trkpt>
      <trkpt lat="43.77915" lon="7.05343">
        <ele>1022.1</ele>
        <time>2020-09-16T13:50:02Z</time>
      </trkpt>
      <trkpt lat="43.77914" lon="7.0533">
        <ele>1022.1</ele>
        <time>2020-09-16T13:50:11Z</time>
      </trkpt>
      <trkpt lat="43.7791" lon="7.05318">
        <ele>1022.1</ele>
        <time>2020-09-16T13:50:20Z</time>
      </trkpt>
      <trkpt lat="43.77909" lon="7.05312">
        <ele>1022.1</ele>
        <time>2020-09-16T13:50:26Z</time>
      </trkpt>
      <trkpt lat="43.7791" lon="7.05305">
        <ele>1022.1</ele>
        <time>2020-09-16T13:50:32Z</time>
      </trkpt>
      <trkpt lat="43.77908" lon="7.05292">
        <ele>1022.3</ele>
        <time>2020-09-16T13:50:41Z</time>
      </trkpt>
      <trkpt lat="43.77909" lon="7.0528">
        <ele>1022.8</ele>
        <time>2020-09-16T13:50:52Z</time>
      </trkpt>
      <trkpt lat="43.77908" lon="7.05266">
        <ele>1023.4</ele>
        <time>2020-09-16T13:51:01Z</time>
      </trkpt>
      <trkpt lat="43.77909" lon="7.05258">
        <ele>1023.5</ele>
        <time>2020-09-16T13:51:08Z</time>
      </trkpt>
      <trkpt lat="43.77915" lon="7.05243">
        <ele>1023.7</ele>
        <time>2020-09-16T13:51:21Z</time>
      </trkpt>
      <trkpt lat="43.77917" lon="7.05238">
        <ele>1023.9</ele>
        <time>2020-09-16T13:51:25Z</time>
      </trkpt>
      <trkpt lat="43.77919" lon="7.05232">
        <ele>1025.3</ele>
        <time>2020-09-16T13:51:31Z</time>
      </trkpt>
      <trkpt lat="43.77923" lon="7.05221">
        <ele>1026.2</ele>
        <time>2020-09-16T13:51:38Z</time>
      </trkpt>
      <trkpt lat="43.77924" lon="7.05214">
        <ele>1026.2</ele>
        <time>2020-09-16T13:51:42Z</time>
      </trkpt>
      <trkpt lat="43.77923" lon="7.05207">
        <ele>1026.2</ele>
        <time>2020-09-16T13:51:47Z</time>
      </trkpt>
      <trkpt lat="43.77924" lon="7.05194">
        <ele>1026.2</ele>
        <time>2020-09-16T13:51:53Z</time>
      </trkpt>
      <trkpt lat="43.77923" lon="7.05179">
        <ele>1026.2</ele>
        <time>2020-09-16T13:52:07Z</time>
      </trkpt>
      <trkpt lat="43.77922" lon="7.05165">
        <ele>1026.1</ele>
        <time>2020-09-16T13:52:19Z</time>
      </trkpt>
      <trkpt lat="43.77918" lon="7.05161">
        <ele>1026.1</ele>
        <time>2020-09-16T13:52:24Z</time>
      </trkpt>
      <trkpt lat="43.77914" lon="7.05158">
        <ele>1026.1</ele>
        <time>2020-09-16T13:52:33Z</time>
      </trkpt>
      <trkpt lat="43.77909" lon="7.05158">
        <ele>1026.1</ele>
        <time>2020-09-16T13:52:38Z</time>
      </trkpt>
      <trkpt lat="43.77904" lon="7.05157">
        <ele>1026.2</ele>
        <time>2020-09-16T13:52:44Z</time>
      </trkpt>
      <trkpt lat="43.77894" lon="7.05155">
        <ele>1026.7</ele>
        <time>2020-09-16T13:52:52Z</time>
      </trkpt>
      <trkpt lat="43.7789" lon="7.05152">
        <ele>1027.2</ele>
        <time>2020-09-16T13:52:56Z</time>
      </trkpt>
      <trkpt lat="43.77885" lon="7.05147">
        <ele>1027.3</ele>
        <time>2020-09-16T13:53:01Z</time>
      </trkpt>
      <trkpt lat="43.7788" lon="7.05129">
        <ele>1027.3</ele>
        <time>2020-09-16T13:53:16Z</time>
      </trkpt>
      <trkpt lat="43.77876" lon="7.05125">
        <ele>1027.3</ele>
        <time>2020-09-16T13:53:23Z</time>
      </trkpt>
      <trkpt lat="43.77867" lon="7.05121">
        <ele>1027.3</ele>
        <time>2020-09-16T13:53:34Z</time>
      </trkpt>
      <trkpt lat="43.77866" lon="7.05106">
        <ele>1027.3</ele>
        <time>2020-09-16T13:53:47Z</time>
      </trkpt>
      <trkpt lat="43.77863" lon="7.05097">
        <ele>1027.3</ele>
        <time>2020-09-16T13:53:54Z</time>
      </trkpt>
      <trkpt lat="43.77859" lon="7.05093">
        <ele>1027.3</ele>
        <time>2020-09-16T13:53:59Z</time>
      </trkpt>
      <trkpt lat="43.77855" lon="7.05089">
        <ele>1027.3</ele>
        <time>2020-09-16T13:54:02Z</time>
      </trkpt>
      <trkpt lat="43.77843" lon="7.05069">
        <ele>1027.3</ele>
        <time>2020-09-16T13:54:15Z</time>
      </trkpt>
      <trkpt lat="43.77848" lon="7.05066">
        <ele>1028.6</ele>
        <time>2020-09-16T13:54:50Z</time>
      </trkpt>
      <trkpt lat="43.77843" lon="7.05069">
        <ele>1028.8</ele>
        <time>2020-09-16T13:55:00Z</time>
      </trkpt>
      <trkpt lat="43.7783" lon="7.0507">
        <ele>1028.8</ele>
        <time>2020-09-16T13:55:14Z</time>
      </trkpt>
      <trkpt lat="43.7782" lon="7.0507">
        <ele>1028.8</ele>
        <time>2020-09-16T13:55:22Z</time>
      </trkpt>
      <trkpt lat="43.77811" lon="7.05066">
        <ele>1028.7</ele>
        <time>2020-09-16T13:55:29Z</time>
      </trkpt>
      <trkpt lat="43.77802" lon="7.05063">
        <ele>1028.7</ele>
        <time>2020-09-16T13:55:35Z</time>
      </trkpt>
      <trkpt lat="43.77795" lon="7.05056">
        <ele>1028.7</ele>
        <time>2020-09-16T13:55:41Z</time>
      </trkpt>
      <trkpt lat="43.77786" lon="7.05041">
        <ele>1028.7</ele>
        <time>2020-09-16T13:55:54Z</time>
      </trkpt>
      <trkpt lat="43.77782" lon="7.05036">
        <ele>1028.7</ele>
        <time>2020-09-16T13:55:58Z</time>
      </trkpt>
      <trkpt lat="43.77778" lon="7.05032">
        <ele>1028.8</ele>
        <time>2020-09-16T13:56:02Z</time>
      </trkpt>
      <trkpt lat="43.77776" lon="7.05025">
        <ele>1028.8</ele>
        <time>2020-09-16T13:56:06Z</time>
      </trkpt>
      <trkpt lat="43.77775" lon="7.05012">
        <ele>1028.8</ele>
        <time>2020-09-16T13:56:15Z</time>
      </trkpt>
      <trkpt lat="43.77775" lon="7.04993">
        <ele>1028.8</ele>
        <time>2020-09-16T13:56:26Z</time>
      </trkpt>
      <trkpt lat="43.77775" lon="7.04973">
        <ele>1027.9</ele>
        <time>2020-09-16T13:56:42Z</time>
      </trkpt>
      <trkpt lat="43.77775" lon="7.04967">
        <ele>1027.9</ele>
        <time>2020-09-16T13:56:50Z</time>
      </trkpt>
      <trkpt lat="43.77775" lon="7.04955">
        <ele>1027.9</ele>
        <time>2020-09-16T13:56:59Z</time>
      </trkpt>
      <trkpt lat="43.77773" lon="7.04942">
        <ele>1028.2</ele>
        <time>2020-09-16T13:57:14Z</time>
      </trkpt>
      <trkpt lat="43.7777" lon="7.0493">
        <ele>1030.5</ele>
        <time>2020-09-16T13:57:29Z</time>
      </trkpt>
      <trkpt lat="43.77771" lon="7.04924">
        <ele>1032.7</ele>
        <time>2020-09-16T13:57:38Z</time>
      </trkpt>
      <trkpt lat="43.77776" lon="7.04913">
        <ele>1033.5</ele>
        <time>2020-09-16T13:57:56Z</time>
      </trkpt>
      <trkpt lat="43.7778" lon="7.04909">
        <ele>1033.5</ele>
        <time>2020-09-16T13:58:04Z</time>
      </trkpt>
      <trkpt lat="43.77783" lon="7.04897">
        <ele>1033.6</ele>
        <time>2020-09-16T13:58:12Z</time>
      </trkpt>
      <trkpt lat="43.77784" lon="7.04888">
        <ele>1033.9</ele>
        <time>2020-09-16T13:58:23Z</time>
      </trkpt>
      <trkpt lat="43.77791" lon="7.04878">
        <ele>1033.9</ele>
        <time>2020-09-16T13:58:34Z</time>
      </trkpt>
      <trkpt lat="43.77798" lon="7.0487">
        <ele>1036.4</ele>
        <time>2020-09-16T13:58:43Z</time>
      </trkpt>
      <trkpt lat="43.77804" lon="7.04859">
        <ele>1037.7</ele>
        <time>2020-09-16T13:58:51Z</time>
      </trkpt>
      <trkpt lat="43.77805" lon="7.04853">
        <ele>1038.3</ele>
        <time>2020-09-16T13:58:57Z</time>
      </trkpt>
      <trkpt lat="43.77815" lon="7.04841">
        <ele>1039.5</ele>
        <time>2020-09-16T13:59:05Z</time>
      </trkpt>
      <trkpt lat="43.77822" lon="7.04818">
        <ele>1043.6</ele>
        <time>2020-09-16T13:59:26Z</time>
      </trkpt>
      <trkpt lat="43.77825" lon="7.04792">
        <ele>1045</ele>
        <time>2020-09-16T13:59:43Z</time>
      </trkpt>
      <trkpt lat="43.77835" lon="7.04776">
        <ele>1045.3</ele>
        <time>2020-09-16T14:00:01Z</time>
      </trkpt>
      <trkpt lat="43.77837" lon="7.04769">
        <ele>1045.4</ele>
        <time>2020-09-16T14:00:07Z</time>
      </trkpt>
      <trkpt lat="43.77841" lon="7.04763">
        <ele>1046.4</ele>
        <time>2020-09-16T14:00:13Z</time>
      </trkpt>
      <trkpt lat="43.77842" lon="7.04756">
        <ele>1046.4</ele>
        <time>2020-09-16T14:00:17Z</time>
      </trkpt>
      <trkpt lat="43.77843" lon="7.04749">
        <ele>1046.5</ele>
        <time>2020-09-16T14:00:23Z</time>
      </trkpt>
      <trkpt lat="43.77845" lon="7.04743">
        <ele>1046.5</ele>
        <time>2020-09-16T14:00:27Z</time>
      </trkpt>
      <trkpt lat="43.77842" lon="7.0473">
        <ele>1046.5</ele>
        <time>2020-09-16T14:00:37Z</time>
      </trkpt>
      <trkpt lat="43.7784" lon="7.04722">
        <ele>1046.6</ele>
        <time>2020-09-16T14:00:44Z</time>
      </trkpt>
      <trkpt lat="43.7784" lon="7.0471">
        <ele>1046.5</ele>
        <time>2020-09-16T14:00:53Z</time>
      </trkpt>
      <trkpt lat="43.77836" lon="7.04703">
        <ele>1046.3</ele>
        <time>2020-09-16T14:01:01Z</time>
      </trkpt>
      <trkpt lat="43.77825" lon="7.04692">
        <ele>1046</ele>
        <time>2020-09-16T14:01:12Z</time>
      </trkpt>
      <trkpt lat="43.77817" lon="7.0467">
        <ele>1045.4</ele>
        <time>2020-09-16T14:01:28Z</time>
      </trkpt>
      <trkpt lat="43.77819" lon="7.04644">
        <ele>1045.3</ele>
        <time>2020-09-16T14:01:44Z</time>
      </trkpt>
      <trkpt lat="43.77819" lon="7.04618">
        <ele>1045.5</ele>
        <time>2020-09-16T14:02:00Z</time>
      </trkpt>
      <trkpt lat="43.77818" lon="7.04593">
        <ele>1045.6</ele>
        <time>2020-09-16T14:02:13Z</time>
      </trkpt>
      <trkpt lat="43.77814" lon="7.04586">
        <ele>1045.9</ele>
        <time>2020-09-16T14:02:24Z</time>
      </trkpt>
      <trkpt lat="43.77813" lon="7.04571">
        <ele>1046.1</ele>
        <time>2020-09-16T14:02:35Z</time>
      </trkpt>
      <trkpt lat="43.77813" lon="7.04558">
        <ele>1046.9</ele>
        <time>2020-09-16T14:02:43Z</time>
      </trkpt>
      <trkpt lat="43.77815" lon="7.04546">
        <ele>1047.7</ele>
        <time>2020-09-16T14:02:52Z</time>
      </trkpt>
      <trkpt lat="43.77819" lon="7.0454">
        <ele>1048</ele>
        <time>2020-09-16T14:02:57Z</time>
      </trkpt>
      <trkpt lat="43.77819" lon="7.04521">
        <ele>1048</ele>
        <time>2020-09-16T14:03:07Z</time>
      </trkpt>
      <trkpt lat="43.77819" lon="7.04514">
        <ele>1048</ele>
        <time>2020-09-16T14:03:11Z</time>
      </trkpt>
      <trkpt lat="43.77815" lon="7.04503">
        <ele>1048</ele>
        <time>2020-09-16T14:03:19Z</time>
      </trkpt>
      <trkpt lat="43.77813" lon="7.04489">
        <ele>1048</ele>
        <time>2020-09-16T14:03:27Z</time>
      </trkpt>
      <trkpt lat="43.7781" lon="7.04484">
        <ele>1048</ele>
        <time>2020-09-16T14:03:30Z</time>
      </trkpt>
      <trkpt lat="43.77807" lon="7.04478">
        <ele>1048</ele>
        <time>2020-09-16T14:03:35Z</time>
      </trkpt>
      <trkpt lat="43.77806" lon="7.04472">
        <ele>1048</ele>
        <time>2020-09-16T14:03:40Z</time>
      </trkpt>
      <trkpt lat="43.77806" lon="7.04465">
        <ele>1048</ele>
        <time>2020-09-16T14:03:44Z</time>
      </trkpt>
      <trkpt lat="43.778" lon="7.04452">
        <ele>1048</ele>
        <time>2020-09-16T14:03:53Z</time>
      </trkpt>
      <trkpt lat="43.77799" lon="7.04445">
        <ele>1048</ele>
        <time>2020-09-16T14:03:58Z</time>
      </trkpt>
      <trkpt lat="43.77793" lon="7.04434">
        <ele>1048</ele>
        <time>2020-09-16T14:04:07Z</time>
      </trkpt>
      <trkpt lat="43.77792" lon="7.04427">
        <ele>1048</ele>
        <time>2020-09-16T14:04:10Z</time>
      </trkpt>
      <trkpt lat="43.77793" lon="7.0442">
        <ele>1048</ele>
        <time>2020-09-16T14:04:15Z</time>
      </trkpt>
      <trkpt lat="43.77795" lon="7.04414">
        <ele>1048.7</ele>
        <time>2020-09-16T14:04:21Z</time>
      </trkpt>
      <trkpt lat="43.77802" lon="7.04397">
        <ele>1049.6</ele>
        <time>2020-09-16T14:04:34Z</time>
      </trkpt>
      <trkpt lat="43.77804" lon="7.0439">
        <ele>1050.2</ele>
        <time>2020-09-16T14:04:38Z</time>
      </trkpt>
      <trkpt lat="43.77803" lon="7.04378">
        <ele>1050.3</ele>
        <time>2020-09-16T14:04:45Z</time>
      </trkpt>
      <trkpt lat="43.77802" lon="7.04371">
        <ele>1050.4</ele>
        <time>2020-09-16T14:04:49Z</time>
      </trkpt>
      <trkpt lat="43.77797" lon="7.04361">
        <ele>1050.5</ele>
        <time>2020-09-16T14:04:56Z</time>
      </trkpt>
      <trkpt lat="43.77794" lon="7.04354">
        <ele>1051</ele>
        <time>2020-09-16T14:05:00Z</time>
      </trkpt>
      <trkpt lat="43.7779" lon="7.0435">
        <ele>1051.6</ele>
        <time>2020-09-16T14:05:04Z</time>
      </trkpt>
      <trkpt lat="43.77787" lon="7.04337">
        <ele>1053.1</ele>
        <time>2020-09-16T14:05:12Z</time>
      </trkpt>
      <trkpt lat="43.77786" lon="7.04329">
        <ele>1053.2</ele>
        <time>2020-09-16T14:05:18Z</time>
      </trkpt>
      <trkpt lat="43.77779" lon="7.04317">
        <ele>1053.2</ele>
        <time>2020-09-16T14:05:27Z</time>
      </trkpt>
      <trkpt lat="43.77778" lon="7.04307">
        <ele>1053.2</ele>
        <time>2020-09-16T14:05:37Z</time>
      </trkpt>
      <trkpt lat="43.77776" lon="7.04302">
        <ele>1053.2</ele>
        <time>2020-09-16T14:05:41Z</time>
      </trkpt>
      <trkpt lat="43.77771" lon="7.04297">
        <ele>1053.2</ele>
        <time>2020-09-16T14:05:48Z</time>
      </trkpt>
      <trkpt lat="43.77762" lon="7.04294">
        <ele>1053.2</ele>
        <time>2020-09-16T14:06:02Z</time>
      </trkpt>
      <trkpt lat="43.77759" lon="7.04281">
        <ele>1053.2</ele>
        <time>2020-09-16T14:06:10Z</time>
      </trkpt>
      <trkpt lat="43.77758" lon="7.04267">
        <ele>1053.2</ele>
        <time>2020-09-16T14:06:16Z</time>
      </trkpt>
      <trkpt lat="43.77753" lon="7.04249">
        <ele>1053.2</ele>
        <time>2020-09-16T14:06:30Z</time>
      </trkpt>
      <trkpt lat="43.77746" lon="7.04226">
        <ele>1053.2</ele>
        <time>2020-09-16T14:06:45Z</time>
      </trkpt>
      <trkpt lat="43.7774" lon="7.04202">
        <ele>1053.1</ele>
        <time>2020-09-16T14:07:02Z</time>
      </trkpt>
      <trkpt lat="43.77731" lon="7.04181">
        <ele>1048.6</ele>
        <time>2020-09-16T14:07:22Z</time>
      </trkpt>
      <trkpt lat="43.77725" lon="7.04157">
        <ele>1046.9</ele>
        <time>2020-09-16T14:07:35Z</time>
      </trkpt>
      <trkpt lat="43.77708" lon="7.04145">
        <ele>1046.3</ele>
        <time>2020-09-16T14:07:48Z</time>
      </trkpt>
      <trkpt lat="43.7769" lon="7.04144">
        <ele>1046.2</ele>
        <time>2020-09-16T14:07:59Z</time>
      </trkpt>
      <trkpt lat="43.77672" lon="7.04141">
        <ele>1046.5</ele>
        <time>2020-09-16T14:08:13Z</time>
      </trkpt>
      <trkpt lat="43.77662" lon="7.0414">
        <ele>1049.5</ele>
        <time>2020-09-16T14:08:33Z</time>
      </trkpt>
      <trkpt lat="43.77651" lon="7.04118">
        <ele>1052.4</ele>
        <time>2020-09-16T14:18:05Z</time>
      </trkpt>
      <trkpt lat="43.77643" lon="7.04103">
        <ele>1052.3</ele>
        <time>2020-09-16T14:18:17Z</time>
      </trkpt>
      <trkpt lat="43.77639" lon="7.04098">
        <ele>1052.3</ele>
        <time>2020-09-16T14:18:21Z</time>
      </trkpt>
      <trkpt lat="43.77633" lon="7.04085">
        <ele>1052.4</ele>
        <time>2020-09-16T14:18:35Z</time>
      </trkpt>
      <trkpt lat="43.77624" lon="7.04076">
        <ele>1052.4</ele>
        <time>2020-09-16T14:18:46Z</time>
      </trkpt>
      <trkpt lat="43.77617" lon="7.04074">
        <ele>1052.1</ele>
        <time>2020-09-16T14:18:52Z</time>
      </trkpt>
      <trkpt lat="43.77609" lon="7.04079">
        <ele>1052.2</ele>
        <time>2020-09-16T14:19:03Z</time>
      </trkpt>
      <trkpt lat="43.77601" lon="7.04086">
        <ele>1052.6</ele>
        <time>2020-09-16T14:19:11Z</time>
      </trkpt>
      <trkpt lat="43.77595" lon="7.04087">
        <ele>1053</ele>
        <time>2020-09-16T14:19:17Z</time>
      </trkpt>
      <trkpt lat="43.7759" lon="7.04089">
        <ele>1053</ele>
        <time>2020-09-16T14:19:21Z</time>
      </trkpt>
      <trkpt lat="43.77585" lon="7.04092">
        <ele>1053.1</ele>
        <time>2020-09-16T14:19:26Z</time>
      </trkpt>
      <trkpt lat="43.7758" lon="7.04094">
        <ele>1053.1</ele>
        <time>2020-09-16T14:19:31Z</time>
      </trkpt>
      <trkpt lat="43.77571" lon="7.04099">
        <ele>1053.2</ele>
        <time>2020-09-16T14:19:40Z</time>
      </trkpt>
      <trkpt lat="43.77567" lon="7.04102">
        <ele>1053.9</ele>
        <time>2020-09-16T14:19:47Z</time>
      </trkpt>
      <trkpt lat="43.77554" lon="7.04107">
        <ele>1054.8</ele>
        <time>2020-09-16T14:19:58Z</time>
      </trkpt>
      <trkpt lat="43.77549" lon="7.04106">
        <ele>1055.5</ele>
        <time>2020-09-16T14:20:02Z</time>
      </trkpt>
      <trkpt lat="43.77539" lon="7.04109">
        <ele>1056.2</ele>
        <time>2020-09-16T14:20:13Z</time>
      </trkpt>
      <trkpt lat="43.77535" lon="7.0411">
        <ele>1057</ele>
        <time>2020-09-16T14:20:18Z</time>
      </trkpt>
      <trkpt lat="43.7753" lon="7.04109">
        <ele>1057</ele>
        <time>2020-09-16T14:20:21Z</time>
      </trkpt>
      <trkpt lat="43.77524" lon="7.0411">
        <ele>1057.4</ele>
        <time>2020-09-16T14:20:26Z</time>
      </trkpt>
      <trkpt lat="43.7751" lon="7.04107">
        <ele>1057.8</ele>
        <time>2020-09-16T14:20:39Z</time>
      </trkpt>
      <trkpt lat="43.77501" lon="7.04107">
        <ele>1058.1</ele>
        <time>2020-09-16T14:20:49Z</time>
      </trkpt>
      <trkpt lat="43.77491" lon="7.04106">
        <ele>1059.1</ele>
        <time>2020-09-16T14:20:59Z</time>
      </trkpt>
      <trkpt lat="43.77482" lon="7.04107">
        <ele>1059.8</ele>
        <time>2020-09-16T14:21:07Z</time>
      </trkpt>
      <trkpt lat="43.77467" lon="7.04108">
        <ele>1061.5</ele>
        <time>2020-09-16T14:21:20Z</time>
      </trkpt>
      <trkpt lat="43.77454" lon="7.04112">
        <ele>1062.3</ele>
        <time>2020-09-16T14:21:33Z</time>
      </trkpt>
      <trkpt lat="43.77444" lon="7.04114">
        <ele>1062.8</ele>
        <time>2020-09-16T14:21:43Z</time>
      </trkpt>
      <trkpt lat="43.77435" lon="7.04117">
        <ele>1063.1</ele>
        <time>2020-09-16T14:21:51Z</time>
      </trkpt>
      <trkpt lat="43.7743" lon="7.04118">
        <ele>1063.3</ele>
        <time>2020-09-16T14:21:55Z</time>
      </trkpt>
      <trkpt lat="43.77425" lon="7.04118">
        <ele>1063.5</ele>
        <time>2020-09-16T14:22:00Z</time>
      </trkpt>
      <trkpt lat="43.77418" lon="7.04122">
        <ele>1064.2</ele>
        <time>2020-09-16T14:22:07Z</time>
      </trkpt>
      <trkpt lat="43.77414" lon="7.04125">
        <ele>1064.2</ele>
        <time>2020-09-16T14:22:11Z</time>
      </trkpt>
      <trkpt lat="43.77406" lon="7.04134">
        <ele>1065.1</ele>
        <time>2020-09-16T14:22:19Z</time>
      </trkpt>
      <trkpt lat="43.77393" lon="7.04141">
        <ele>1065.5</ele>
        <time>2020-09-16T14:22:34Z</time>
      </trkpt>
      <trkpt lat="43.77385" lon="7.04146">
        <ele>1066.3</ele>
        <time>2020-09-16T14:22:41Z</time>
      </trkpt>
      <trkpt lat="43.7738" lon="7.04148">
        <ele>1067.2</ele>
        <time>2020-09-16T14:22:45Z</time>
      </trkpt>
      <trkpt lat="43.77372" lon="7.04156">
        <ele>1068.2</ele>
        <time>2020-09-16T14:22:55Z</time>
      </trkpt>
      <trkpt lat="43.77364" lon="7.04164">
        <ele>1068.9</ele>
        <time>2020-09-16T14:23:03Z</time>
      </trkpt>
      <trkpt lat="43.77358" lon="7.04169">
        <ele>1070</ele>
        <time>2020-09-16T14:23:09Z</time>
      </trkpt>
      <trkpt lat="43.77356" lon="7.04175">
        <ele>1070.5</ele>
        <time>2020-09-16T14:23:15Z</time>
      </trkpt>
      <trkpt lat="43.77349" lon="7.04186">
        <ele>1071.6</ele>
        <time>2020-09-16T14:23:24Z</time>
      </trkpt>
      <trkpt lat="43.77345" lon="7.0419">
        <ele>1072.5</ele>
        <time>2020-09-16T14:23:28Z</time>
      </trkpt>
      <trkpt lat="43.77343" lon="7.04197">
        <ele>1073.5</ele>
        <time>2020-09-16T14:23:32Z</time>
      </trkpt>
      <trkpt lat="43.77339" lon="7.04201">
        <ele>1073.5</ele>
        <time>2020-09-16T14:23:36Z</time>
      </trkpt>
      <trkpt lat="43.77333" lon="7.0421">
        <ele>1074.7</ele>
        <time>2020-09-16T14:23:42Z</time>
      </trkpt>
      <trkpt lat="43.77326" lon="7.0422">
        <ele>1075.6</ele>
        <time>2020-09-16T14:23:49Z</time>
      </trkpt>
      <trkpt lat="43.77321" lon="7.04231">
        <ele>1075.9</ele>
        <time>2020-09-16T14:23:58Z</time>
      </trkpt>
      <trkpt lat="43.77315" lon="7.04248">
        <ele>1076</ele>
        <time>2020-09-16T14:24:10Z</time>
      </trkpt>
      <trkpt lat="43.77315" lon="7.04256">
        <ele>1076.1</ele>
        <time>2020-09-16T14:24:14Z</time>
      </trkpt>
      <trkpt lat="43.77312" lon="7.04261">
        <ele>1076.4</ele>
        <time>2020-09-16T14:24:18Z</time>
      </trkpt>
      <trkpt lat="43.77311" lon="7.04268">
        <ele>1076.4</ele>
        <time>2020-09-16T14:24:22Z</time>
      </trkpt>
      <trkpt lat="43.77307" lon="7.04287">
        <ele>1077</ele>
        <time>2020-09-16T14:24:35Z</time>
      </trkpt>
      <trkpt lat="43.77303" lon="7.04305">
        <ele>1077.5</ele>
        <time>2020-09-16T14:24:46Z</time>
      </trkpt>
      <trkpt lat="43.77302" lon="7.04312">
        <ele>1077.9</ele>
        <time>2020-09-16T14:24:49Z</time>
      </trkpt>
      <trkpt lat="43.77302" lon="7.04318">
        <ele>1077.9</ele>
        <time>2020-09-16T14:24:52Z</time>
      </trkpt>
      <trkpt lat="43.77302" lon="7.04326">
        <ele>1078.4</ele>
        <time>2020-09-16T14:24:56Z</time>
      </trkpt>
      <trkpt lat="43.77299" lon="7.04333">
        <ele>1078.5</ele>
        <time>2020-09-16T14:24:59Z</time>
      </trkpt>
      <trkpt lat="43.77293" lon="7.04352">
        <ele>1078.5</ele>
        <time>2020-09-16T14:25:10Z</time>
      </trkpt>
      <trkpt lat="43.7729" lon="7.04365">
        <ele>1078.5</ele>
        <time>2020-09-16T14:25:17Z</time>
      </trkpt>
      <trkpt lat="43.77285" lon="7.04383">
        <ele>1078.3</ele>
        <time>2020-09-16T14:25:29Z</time>
      </trkpt>
      <trkpt lat="43.77283" lon="7.04389">
        <ele>1077.6</ele>
        <time>2020-09-16T14:25:33Z</time>
      </trkpt>
      <trkpt lat="43.77278" lon="7.04407">
        <ele>1076.9</ele>
        <time>2020-09-16T14:25:42Z</time>
      </trkpt>
      <trkpt lat="43.77274" lon="7.04419">
        <ele>1076.5</ele>
        <time>2020-09-16T14:25:50Z</time>
      </trkpt>
      <trkpt lat="43.77269" lon="7.04433">
        <ele>1076.2</ele>
        <time>2020-09-16T14:26:01Z</time>
      </trkpt>
      <trkpt lat="43.77267" lon="7.0444">
        <ele>1075.9</ele>
        <time>2020-09-16T14:26:05Z</time>
      </trkpt>
      <trkpt lat="43.7726" lon="7.04455">
        <ele>1075.9</ele>
        <time>2020-09-16T14:26:13Z</time>
      </trkpt>
      <trkpt lat="43.77256" lon="7.04459">
        <ele>1075.7</ele>
        <time>2020-09-16T14:26:17Z</time>
      </trkpt>
      <trkpt lat="43.77253" lon="7.04465">
        <ele>1075.7</ele>
        <time>2020-09-16T14:26:21Z</time>
      </trkpt>
      <trkpt lat="43.77248" lon="7.04478">
        <ele>1075.3</ele>
        <time>2020-09-16T14:26:28Z</time>
      </trkpt>
      <trkpt lat="43.77243" lon="7.0449">
        <ele>1074.7</ele>
        <time>2020-09-16T14:26:36Z</time>
      </trkpt>
      <trkpt lat="43.77238" lon="7.04503">
        <ele>1074.3</ele>
        <time>2020-09-16T14:26:43Z</time>
      </trkpt>
      <trkpt lat="43.77235" lon="7.04509">
        <ele>1074.2</ele>
        <time>2020-09-16T14:26:46Z</time>
      </trkpt>
      <trkpt lat="43.77234" lon="7.04515">
        <ele>1074.2</ele>
        <time>2020-09-16T14:26:49Z</time>
      </trkpt>
      <trkpt lat="43.77234" lon="7.04523">
        <ele>1074.4</ele>
        <time>2020-09-16T14:26:54Z</time>
      </trkpt>
      <trkpt lat="43.77231" lon="7.0453">
        <ele>1074.8</ele>
        <time>2020-09-16T14:26:58Z</time>
      </trkpt>
      <trkpt lat="43.77231" lon="7.04537">
        <ele>1074.8</ele>
        <time>2020-09-16T14:27:02Z</time>
      </trkpt>
      <trkpt lat="43.77231" lon="7.0455">
        <ele>1074.3</ele>
        <time>2020-09-16T14:27:08Z</time>
      </trkpt>
      <trkpt lat="43.77232" lon="7.04558">
        <ele>1073.8</ele>
        <time>2020-09-16T14:27:12Z</time>
      </trkpt>
      <trkpt lat="43.77237" lon="7.04569">
        <ele>1073.1</ele>
        <time>2020-09-16T14:27:19Z</time>
      </trkpt>
      <trkpt lat="43.77239" lon="7.04582">
        <ele>1072.9</ele>
        <time>2020-09-16T14:27:27Z</time>
      </trkpt>
      <trkpt lat="43.77243" lon="7.04594">
        <ele>1072.6</ele>
        <time>2020-09-16T14:27:34Z</time>
      </trkpt>
      <trkpt lat="43.77246" lon="7.04613">
        <ele>1072.7</ele>
        <time>2020-09-16T14:27:44Z</time>
      </trkpt>
      <trkpt lat="43.77246" lon="7.04626">
        <ele>1072.8</ele>
        <time>2020-09-16T14:27:54Z</time>
      </trkpt>
      <trkpt lat="43.77246" lon="7.04639">
        <ele>1072.8</ele>
        <time>2020-09-16T14:28:02Z</time>
      </trkpt>
      <trkpt lat="43.77247" lon="7.04659">
        <ele>1072.9</ele>
        <time>2020-09-16T14:28:14Z</time>
      </trkpt>
      <trkpt lat="43.77246" lon="7.04666">
        <ele>1073.1</ele>
        <time>2020-09-16T14:28:17Z</time>
      </trkpt>
      <trkpt lat="43.77248" lon="7.04685">
        <ele>1073.1</ele>
        <time>2020-09-16T14:28:28Z</time>
      </trkpt>
      <trkpt lat="43.77246" lon="7.04699">
        <ele>1073.1</ele>
        <time>2020-09-16T14:28:35Z</time>
      </trkpt>
      <trkpt lat="43.77248" lon="7.04711">
        <ele>1073.1</ele>
        <time>2020-09-16T14:28:43Z</time>
      </trkpt>
      <trkpt lat="43.77251" lon="7.04724">
        <ele>1073.1</ele>
        <time>2020-09-16T14:28:49Z</time>
      </trkpt>
      <trkpt lat="43.77257" lon="7.04742">
        <ele>1073.1</ele>
        <time>2020-09-16T14:28:58Z</time>
      </trkpt>
      <trkpt lat="43.77263" lon="7.04752">
        <ele>1072.6</ele>
        <time>2020-09-16T14:29:06Z</time>
      </trkpt>
      <trkpt lat="43.77266" lon="7.04759">
        <ele>1071</ele>
        <time>2020-09-16T14:29:10Z</time>
      </trkpt>
      <trkpt lat="43.77271" lon="7.04769">
        <ele>1070.4</ele>
        <time>2020-09-16T14:29:17Z</time>
      </trkpt>
      <trkpt lat="43.77276" lon="7.04782">
        <ele>1070.3</ele>
        <time>2020-09-16T14:29:26Z</time>
      </trkpt>
      <trkpt lat="43.77285" lon="7.04797">
        <ele>1070.3</ele>
        <time>2020-09-16T14:29:36Z</time>
      </trkpt>
      <trkpt lat="43.77292" lon="7.0481">
        <ele>1069.7</ele>
        <time>2020-09-16T14:29:44Z</time>
      </trkpt>
      <trkpt lat="43.77297" lon="7.04825">
        <ele>1069.3</ele>
        <time>2020-09-16T14:29:54Z</time>
      </trkpt>
      <trkpt lat="43.77298" lon="7.04831">
        <ele>1069.3</ele>
        <time>2020-09-16T14:29:58Z</time>
      </trkpt>
      <trkpt lat="43.77303" lon="7.04849">
        <ele>1069.3</ele>
        <time>2020-09-16T14:30:10Z</time>
      </trkpt>
      <trkpt lat="43.77308" lon="7.04861">
        <ele>1067.6</ele>
        <time>2020-09-16T14:30:17Z</time>
      </trkpt>
      <trkpt lat="43.77317" lon="7.04875">
        <ele>1064</ele>
        <time>2020-09-16T14:30:28Z</time>
      </trkpt>
      <trkpt lat="43.77321" lon="7.0488">
        <ele>1062</ele>
        <time>2020-09-16T14:30:33Z</time>
      </trkpt>
      <trkpt lat="43.77329" lon="7.04888">
        <ele>1060.5</ele>
        <time>2020-09-16T14:30:40Z</time>
      </trkpt>
      <trkpt lat="43.77338" lon="7.04895">
        <ele>1059</ele>
        <time>2020-09-16T14:30:48Z</time>
      </trkpt>
      <trkpt lat="43.77347" lon="7.04902">
        <ele>1058.6</ele>
        <time>2020-09-16T14:30:55Z</time>
      </trkpt>
      <trkpt lat="43.77356" lon="7.04917">
        <ele>1058.3</ele>
        <time>2020-09-16T14:31:06Z</time>
      </trkpt>
      <trkpt lat="43.7736" lon="7.04929">
        <ele>1057.9</ele>
        <time>2020-09-16T14:31:14Z</time>
      </trkpt>
      <trkpt lat="43.77365" lon="7.04947">
        <ele>1057.8</ele>
        <time>2020-09-16T14:31:24Z</time>
      </trkpt>
      <trkpt lat="43.77371" lon="7.04964">
        <ele>1057.7</ele>
        <time>2020-09-16T14:31:35Z</time>
      </trkpt>
      <trkpt lat="43.77376" lon="7.04982">
        <ele>1056.1</ele>
        <time>2020-09-16T14:31:46Z</time>
      </trkpt>
      <trkpt lat="43.77378" lon="7.04989">
        <ele>1055.2</ele>
        <time>2020-09-16T14:31:50Z</time>
      </trkpt>
      <trkpt lat="43.7738" lon="7.05001">
        <ele>1053</ele>
        <time>2020-09-16T14:31:58Z</time>
      </trkpt>
      <trkpt lat="43.77385" lon="7.05012">
        <ele>1051.7</ele>
        <time>2020-09-16T14:32:05Z</time>
      </trkpt>
      <trkpt lat="43.77388" lon="7.05019">
        <ele>1050.5</ele>
        <time>2020-09-16T14:32:09Z</time>
      </trkpt>
      <trkpt lat="43.77393" lon="7.0503">
        <ele>1050.1</ele>
        <time>2020-09-16T14:32:16Z</time>
      </trkpt>
      <trkpt lat="43.77397" lon="7.05048">
        <ele>1049.9</ele>
        <time>2020-09-16T14:32:27Z</time>
      </trkpt>
      <trkpt lat="43.77401" lon="7.05062">
        <ele>1049.3</ele>
        <time>2020-09-16T14:32:37Z</time>
      </trkpt>
      <trkpt lat="43.77403" lon="7.05081">
        <ele>1048.7</ele>
        <time>2020-09-16T14:32:48Z</time>
      </trkpt>
      <trkpt lat="43.77404" lon="7.05093">
        <ele>1047.5</ele>
        <time>2020-09-16T14:32:55Z</time>
      </trkpt>
      <trkpt lat="43.77404" lon="7.05106">
        <ele>1046.7</ele>
        <time>2020-09-16T14:33:02Z</time>
      </trkpt>
      <trkpt lat="43.77405" lon="7.05118">
        <ele>1046.4</ele>
        <time>2020-09-16T14:33:09Z</time>
      </trkpt>
      <trkpt lat="43.77406" lon="7.05126">
        <ele>1046.2</ele>
        <time>2020-09-16T14:33:14Z</time>
      </trkpt>
      <trkpt lat="43.77406" lon="7.05133">
        <ele>1045.6</ele>
        <time>2020-09-16T14:33:19Z</time>
      </trkpt>
      <trkpt lat="43.77402" lon="7.05152">
        <ele>1044.8</ele>
        <time>2020-09-16T14:33:30Z</time>
      </trkpt>
      <trkpt lat="43.77397" lon="7.05157">
        <ele>1039.7</ele>
        <time>2020-09-16T14:35:20Z</time>
      </trkpt>
      <trkpt lat="43.77399" lon="7.05163">
        <ele>1039.6</ele>
        <time>2020-09-16T14:35:32Z</time>
      </trkpt>
      <trkpt lat="43.77389" lon="7.05162">
        <ele>1039.5</ele>
        <time>2020-09-16T14:35:52Z</time>
      </trkpt>
      <trkpt lat="43.77382" lon="7.0517">
        <ele>1039.4</ele>
        <time>2020-09-16T14:36:00Z</time>
      </trkpt>
      <trkpt lat="43.77369" lon="7.05182">
        <ele>1039.2</ele>
        <time>2020-09-16T14:36:12Z</time>
      </trkpt>
      <trkpt lat="43.77365" lon="7.05186">
        <ele>1038.9</ele>
        <time>2020-09-16T14:36:15Z</time>
      </trkpt>
      <trkpt lat="43.77356" lon="7.05194">
        <ele>1038.1</ele>
        <time>2020-09-16T14:36:23Z</time>
      </trkpt>
      <trkpt lat="43.77352" lon="7.05201">
        <ele>1036.1</ele>
        <time>2020-09-16T14:36:36Z</time>
      </trkpt>
      <trkpt lat="43.77346" lon="7.05218">
        <ele>1032.2</ele>
        <time>2020-09-16T14:36:52Z</time>
      </trkpt>
      <trkpt lat="43.77344" lon="7.05231">
        <ele>1031.8</ele>
        <time>2020-09-16T14:37:00Z</time>
      </trkpt>
      <trkpt lat="43.77342" lon="7.05237">
        <ele>1031.7</ele>
        <time>2020-09-16T14:37:11Z</time>
      </trkpt>
      <trkpt lat="43.77339" lon="7.05251">
        <ele>1031.7</ele>
        <time>2020-09-16T14:37:21Z</time>
      </trkpt>
      <trkpt lat="43.77339" lon="7.05264">
        <ele>1031.5</ele>
        <time>2020-09-16T14:37:29Z</time>
      </trkpt>
      <trkpt lat="43.7734" lon="7.0527">
        <ele>1031.3</ele>
        <time>2020-09-16T14:37:33Z</time>
      </trkpt>
      <trkpt lat="43.7734" lon="7.05277">
        <ele>1030.9</ele>
        <time>2020-09-16T14:37:37Z</time>
      </trkpt>
      <trkpt lat="43.77336" lon="7.05296">
        <ele>1030</ele>
        <time>2020-09-16T14:37:50Z</time>
      </trkpt>
      <trkpt lat="43.77332" lon="7.05309">
        <ele>1029.8</ele>
        <time>2020-09-16T14:37:57Z</time>
      </trkpt>
      <trkpt lat="43.7733" lon="7.05322">
        <ele>1029.6</ele>
        <time>2020-09-16T14:38:06Z</time>
      </trkpt>
      <trkpt lat="43.7733" lon="7.05335">
        <ele>1029.1</ele>
        <time>2020-09-16T14:38:14Z</time>
      </trkpt>
      <trkpt lat="43.77328" lon="7.05342">
        <ele>1028.4</ele>
        <time>2020-09-16T14:38:18Z</time>
      </trkpt>
      <trkpt lat="43.77327" lon="7.05355">
        <ele>1027.3</ele>
        <time>2020-09-16T14:38:26Z</time>
      </trkpt>
      <trkpt lat="43.77327" lon="7.05369">
        <ele>1026.6</ele>
        <time>2020-09-16T14:38:33Z</time>
      </trkpt>
      <trkpt lat="43.77324" lon="7.0538">
        <ele>1026.4</ele>
        <time>2020-09-16T14:38:39Z</time>
      </trkpt>
      <trkpt lat="43.77323" lon="7.05393">
        <ele>1026.1</ele>
        <time>2020-09-16T14:38:44Z</time>
      </trkpt>
      <trkpt lat="43.77322" lon="7.05403">
        <ele>1024.8</ele>
        <time>2020-09-16T14:39:01Z</time>
      </trkpt>
      <trkpt lat="43.77323" lon="7.05397">
        <ele>1023.4</ele>
        <time>2020-09-16T14:39:20Z</time>
      </trkpt>
      <trkpt lat="43.77328" lon="7.05408">
        <ele>1023.4</ele>
        <time>2020-09-16T14:39:39Z</time>
      </trkpt>
      <trkpt lat="43.7733" lon="7.05416">
        <ele>1023.4</ele>
        <time>2020-09-16T14:39:43Z</time>
      </trkpt>
      <trkpt lat="43.7733" lon="7.05423">
        <ele>1023.4</ele>
        <time>2020-09-16T14:39:47Z</time>
      </trkpt>
      <trkpt lat="43.77331" lon="7.05437">
        <ele>1024</ele>
        <time>2020-09-16T14:39:56Z</time>
      </trkpt>
      <trkpt lat="43.77332" lon="7.05443">
        <ele>1024.5</ele>
        <time>2020-09-16T14:40:00Z</time>
      </trkpt>
      <trkpt lat="43.77333" lon="7.05462">
        <ele>1025.4</ele>
        <time>2020-09-16T14:40:11Z</time>
      </trkpt>
      <trkpt lat="43.77329" lon="7.05474">
        <ele>1025.9</ele>
        <time>2020-09-16T14:40:20Z</time>
      </trkpt>
      <trkpt lat="43.77319" lon="7.05487">
        <ele>1025.9</ele>
        <time>2020-09-16T14:40:30Z</time>
      </trkpt>
      <trkpt lat="43.77312" lon="7.05505">
        <ele>1025.9</ele>
        <time>2020-09-16T14:40:42Z</time>
      </trkpt>
      <trkpt lat="43.77308" lon="7.05517">
        <ele>1025.8</ele>
        <time>2020-09-16T14:40:48Z</time>
      </trkpt>
      <trkpt lat="43.77306" lon="7.05525">
        <ele>1024</ele>
        <time>2020-09-16T14:40:52Z</time>
      </trkpt>
      <trkpt lat="43.77305" lon="7.05532">
        <ele>1024</ele>
        <time>2020-09-16T14:40:56Z</time>
      </trkpt>
      <trkpt lat="43.77301" lon="7.05544">
        <ele>1020.1</ele>
        <time>2020-09-16T14:41:09Z</time>
      </trkpt>
      <trkpt lat="43.77297" lon="7.05559">
        <ele>1018.1</ele>
        <time>2020-09-16T14:41:16Z</time>
      </trkpt>
      <trkpt lat="43.77289" lon="7.05576">
        <ele>1012.3</ele>
        <time>2020-09-16T14:41:26Z</time>
      </trkpt>
      <trkpt lat="43.77285" lon="7.05589">
        <ele>1011.3</ele>
        <time>2020-09-16T14:41:35Z</time>
      </trkpt>
      <trkpt lat="43.7728" lon="7.056">
        <ele>1011</ele>
        <time>2020-09-16T14:41:43Z</time>
      </trkpt>
      <trkpt lat="43.77272" lon="7.0561">
        <ele>1010.8</ele>
        <time>2020-09-16T14:41:49Z</time>
      </trkpt>
      <trkpt lat="43.77264" lon="7.05625">
        <ele>1010.2</ele>
        <time>2020-09-16T14:42:01Z</time>
      </trkpt>
      <trkpt lat="43.77258" lon="7.05635">
        <ele>1008.9</ele>
        <time>2020-09-16T14:42:07Z</time>
      </trkpt>
      <trkpt lat="43.77257" lon="7.05643">
        <ele>1008.3</ele>
        <time>2020-09-16T14:42:12Z</time>
      </trkpt>
      <trkpt lat="43.77256" lon="7.0565">
        <ele>1006.2</ele>
        <time>2020-09-16T14:42:18Z</time>
      </trkpt>
      <trkpt lat="43.77254" lon="7.05656">
        <ele>1005.8</ele>
        <time>2020-09-16T14:42:33Z</time>
      </trkpt>
      <trkpt lat="43.77253" lon="7.05662">
        <ele>1005.8</ele>
        <time>2020-09-16T14:42:37Z</time>
      </trkpt>
      <trkpt lat="43.7725" lon="7.05669">
        <ele>1005.8</ele>
        <time>2020-09-16T14:42:43Z</time>
      </trkpt>
      <trkpt lat="43.77246" lon="7.05677">
        <ele>1005.6</ele>
        <time>2020-09-16T14:42:48Z</time>
      </trkpt>
      <trkpt lat="43.77244" lon="7.05684">
        <ele>1005.6</ele>
        <time>2020-09-16T14:42:52Z</time>
      </trkpt>
      <trkpt lat="43.77243" lon="7.05696">
        <ele>1005.5</ele>
        <time>2020-09-16T14:42:58Z</time>
      </trkpt>
      <trkpt lat="43.7724" lon="7.05709">
        <ele>1005.5</ele>
        <time>2020-09-16T14:43:06Z</time>
      </trkpt>
      <trkpt lat="43.77239" lon="7.05716">
        <ele>1005.5</ele>
        <time>2020-09-16T14:43:10Z</time>
      </trkpt>
      <trkpt lat="43.77236" lon="7.0573">
        <ele>1005.1</ele>
        <time>2020-09-16T14:43:20Z</time>
      </trkpt>
      <trkpt lat="43.77232" lon="7.05733">
        <ele>1004.2</ele>
        <time>2020-09-16T14:43:25Z</time>
      </trkpt>
      <trkpt lat="43.7723" lon="7.05739">
        <ele>1003.8</ele>
        <time>2020-09-16T14:43:30Z</time>
      </trkpt>
      <trkpt lat="43.77226" lon="7.05759">
        <ele>1002.8</ele>
        <time>2020-09-16T14:43:41Z</time>
      </trkpt>
      <trkpt lat="43.77224" lon="7.05765">
        <ele>1002.1</ele>
        <time>2020-09-16T14:43:45Z</time>
      </trkpt>
      <trkpt lat="43.77222" lon="7.05771">
        <ele>1002</ele>
        <time>2020-09-16T14:43:50Z</time>
      </trkpt>
      <trkpt lat="43.77219" lon="7.05783">
        <ele>1000.9</ele>
        <time>2020-09-16T14:43:57Z</time>
      </trkpt>
      <trkpt lat="43.77215" lon="7.05796">
        <ele>1000.1</ele>
        <time>2020-09-16T14:44:05Z</time>
      </trkpt>
      <trkpt lat="43.77211" lon="7.05807">
        <ele>1000</ele>
        <time>2020-09-16T14:44:12Z</time>
      </trkpt>
      <trkpt lat="43.77208" lon="7.05833">
        <ele>999.6</ele>
        <time>2020-09-16T14:44:28Z</time>
      </trkpt>
      <trkpt lat="43.77202" lon="7.05856">
        <ele>998.7</ele>
        <time>2020-09-16T14:44:40Z</time>
      </trkpt>
      <trkpt lat="43.77193" lon="7.05878">
        <ele>998.4</ele>
        <time>2020-09-16T14:44:53Z</time>
      </trkpt>
      <trkpt lat="43.77185" lon="7.059">
        <ele>998</ele>
        <time>2020-09-16T14:45:08Z</time>
      </trkpt>
      <trkpt lat="43.77179" lon="7.05925">
        <ele>996.7</ele>
        <time>2020-09-16T14:45:23Z</time>
      </trkpt>
      <trkpt lat="43.77176" lon="7.05949">
        <ele>994.4</ele>
        <time>2020-09-16T14:45:34Z</time>
      </trkpt>
      <trkpt lat="43.77172" lon="7.05974">
        <ele>993.9</ele>
        <time>2020-09-16T14:45:50Z</time>
      </trkpt>
      <trkpt lat="43.77167" lon="7.06">
        <ele>993.6</ele>
        <time>2020-09-16T14:46:01Z</time>
      </trkpt>
      <trkpt lat="43.77163" lon="7.06024">
        <ele>993.2</ele>
        <time>2020-09-16T14:46:17Z</time>
      </trkpt>
      <trkpt lat="43.77156" lon="7.06048">
        <ele>992.7</ele>
        <time>2020-09-16T14:46:29Z</time>
      </trkpt>
      <trkpt lat="43.7715" lon="7.06072">
        <ele>990.3</ele>
        <time>2020-09-16T14:46:47Z</time>
      </trkpt>
      <trkpt lat="43.77145" lon="7.06096">
        <ele>987.1</ele>
        <time>2020-09-16T14:47:05Z</time>
      </trkpt>
      <trkpt lat="43.77142" lon="7.06122">
        <ele>986.8</ele>
        <time>2020-09-16T14:47:18Z</time>
      </trkpt>
      <trkpt lat="43.77142" lon="7.06148">
        <ele>986.8</ele>
        <time>2020-09-16T14:47:36Z</time>
      </trkpt>
      <trkpt lat="43.77136" lon="7.06174">
        <ele>986.7</ele>
        <time>2020-09-16T14:47:50Z</time>
      </trkpt>
      <trkpt lat="43.77136" lon="7.06201">
        <ele>986.7</ele>
        <time>2020-09-16T14:48:03Z</time>
      </trkpt>
      <trkpt lat="43.77134" lon="7.06226">
        <ele>986.2</ele>
        <time>2020-09-16T14:48:16Z</time>
      </trkpt>
      <trkpt lat="43.77128" lon="7.06251">
        <ele>984.7</ele>
        <time>2020-09-16T14:48:32Z</time>
      </trkpt>
      <trkpt lat="43.77128" lon="7.06278">
        <ele>980.4</ele>
        <time>2020-09-16T14:48:46Z</time>
      </trkpt>
      <trkpt lat="43.77129" lon="7.06304">
        <ele>973.2</ele>
        <time>2020-09-16T14:49:00Z</time>
      </trkpt>
      <trkpt lat="43.77129" lon="7.06329">
        <ele>971.1</ele>
        <time>2020-09-16T14:49:14Z</time>
      </trkpt>
      <trkpt lat="43.77136" lon="7.06353">
        <ele>969.6</ele>
        <time>2020-09-16T14:49:28Z</time>
      </trkpt>
      <trkpt lat="43.77141" lon="7.06377">
        <ele>966.5</ele>
        <time>2020-09-16T14:49:40Z</time>
      </trkpt>
      <trkpt lat="43.77143" lon="7.06389">
        <ele>964.6</ele>
        <time>2020-09-16T14:49:48Z</time>
      </trkpt>
      <trkpt lat="43.77144" lon="7.06399">
        <ele>964.1</ele>
        <time>2020-09-16T14:49:55Z</time>
      </trkpt>
      <trkpt lat="43.77142" lon="7.06406">
        <ele>963.8</ele>
        <time>2020-09-16T14:50:01Z</time>
      </trkpt>
      <trkpt lat="43.77137" lon="7.06417">
        <ele>963.8</ele>
        <time>2020-09-16T14:50:06Z</time>
      </trkpt>
      <trkpt lat="43.77137" lon="7.06426">
        <ele>962.7</ele>
        <time>2020-09-16T14:50:11Z</time>
      </trkpt>
      <trkpt lat="43.7714" lon="7.06451">
        <ele>959.9</ele>
        <time>2020-09-16T14:50:24Z</time>
      </trkpt>
      <trkpt lat="43.7714" lon="7.0647">
        <ele>956.2</ele>
        <time>2020-09-16T14:50:36Z</time>
      </trkpt>
      <trkpt lat="43.77141" lon="7.06485">
        <ele>953.6</ele>
        <time>2020-09-16T14:50:43Z</time>
      </trkpt>
      <trkpt lat="43.7714" lon="7.06499">
        <ele>950.6</ele>
        <time>2020-09-16T14:50:50Z</time>
      </trkpt>
      <trkpt lat="43.77139" lon="7.06513">
        <ele>949.6</ele>
        <time>2020-09-16T14:50:58Z</time>
      </trkpt>
      <trkpt lat="43.7714" lon="7.06519">
        <ele>949.5</ele>
        <time>2020-09-16T14:51:04Z</time>
      </trkpt>
      <trkpt lat="43.7714" lon="7.06531">
        <ele>949.5</ele>
        <time>2020-09-16T14:51:12Z</time>
      </trkpt>
      <trkpt lat="43.7714" lon="7.06538">
        <ele>949.5</ele>
        <time>2020-09-16T14:51:16Z</time>
      </trkpt>
      <trkpt lat="43.77142" lon="7.06545">
        <ele>949.4</ele>
        <time>2020-09-16T14:51:20Z</time>
      </trkpt>
      <trkpt lat="43.77141" lon="7.06553">
        <ele>949.3</ele>
        <time>2020-09-16T14:51:26Z</time>
      </trkpt>
      <trkpt lat="43.77139" lon="7.06561">
        <ele>949.3</ele>
        <time>2020-09-16T14:51:34Z</time>
      </trkpt>
      <trkpt lat="43.77138" lon="7.06571">
        <ele>949.3</ele>
        <time>2020-09-16T14:51:38Z</time>
      </trkpt>
      <trkpt lat="43.7714" lon="7.06577">
        <ele>948.7</ele>
        <time>2020-09-16T14:51:42Z</time>
      </trkpt>
      <trkpt lat="43.77139" lon="7.06584">
        <ele>947.8</ele>
        <time>2020-09-16T14:51:47Z</time>
      </trkpt>
      <trkpt lat="43.77138" lon="7.06597">
        <ele>944.7</ele>
        <time>2020-09-16T14:52:00Z</time>
      </trkpt>
      <trkpt lat="43.77126" lon="7.06618">
        <ele>944.1</ele>
        <time>2020-09-16T14:52:18Z</time>
      </trkpt>
      <trkpt lat="43.77117" lon="7.06635">
        <ele>942.8</ele>
        <time>2020-09-16T14:52:30Z</time>
      </trkpt>
      <trkpt lat="43.77115" lon="7.06641">
        <ele>942.6</ele>
        <time>2020-09-16T14:52:34Z</time>
      </trkpt>
      <trkpt lat="43.77112" lon="7.06646">
        <ele>942.6</ele>
        <time>2020-09-16T14:52:37Z</time>
      </trkpt>
      <trkpt lat="43.77098" lon="7.06663">
        <ele>942.4</ele>
        <time>2020-09-16T14:52:49Z</time>
      </trkpt>
      <trkpt lat="43.7708" lon="7.06671">
        <ele>940.4</ele>
        <time>2020-09-16T14:53:00Z</time>
      </trkpt>
      <trkpt lat="43.77067" lon="7.0668">
        <ele>938</ele>
        <time>2020-09-16T14:53:09Z</time>
      </trkpt>
      <trkpt lat="43.77056" lon="7.06683">
        <ele>937.8</ele>
        <time>2020-09-16T14:53:18Z</time>
      </trkpt>
      <trkpt lat="43.77052" lon="7.06684">
        <ele>937.5</ele>
        <time>2020-09-16T14:53:23Z</time>
      </trkpt>
      <trkpt lat="43.77041" lon="7.06695">
        <ele>936.6</ele>
        <time>2020-09-16T14:53:37Z</time>
      </trkpt>
      <trkpt lat="43.77032" lon="7.06701">
        <ele>936.2</ele>
        <time>2020-09-16T14:53:44Z</time>
      </trkpt>
      <trkpt lat="43.77027" lon="7.06707">
        <ele>936.2</ele>
        <time>2020-09-16T14:53:49Z</time>
      </trkpt>
      <trkpt lat="43.77025" lon="7.06713">
        <ele>936</ele>
        <time>2020-09-16T14:53:53Z</time>
      </trkpt>
      <trkpt lat="43.7702" lon="7.06715">
        <ele>935.9</ele>
        <time>2020-09-16T14:53:58Z</time>
      </trkpt>
      <trkpt lat="43.77017" lon="7.06719">
        <ele>931.8</ele>
        <time>2020-09-16T14:54:46Z</time>
      </trkpt>
      <trkpt lat="43.77021" lon="7.06724">
        <ele>931.6</ele>
        <time>2020-09-16T14:55:09Z</time>
      </trkpt>
      <trkpt lat="43.77012" lon="7.06728">
        <ele>930.5</ele>
        <time>2020-09-16T14:56:29Z</time>
      </trkpt>
      <trkpt lat="43.76997" lon="7.06745">
        <ele>930.7</ele>
        <time>2020-09-16T14:56:46Z</time>
      </trkpt>
      <trkpt lat="43.76985" lon="7.06764">
        <ele>930.7</ele>
        <time>2020-09-16T14:56:58Z</time>
      </trkpt>
      <trkpt lat="43.76975" lon="7.06776">
        <ele>930.7</ele>
        <time>2020-09-16T14:57:10Z</time>
      </trkpt>
      <trkpt lat="43.76967" lon="7.06784">
        <ele>930</ele>
        <time>2020-09-16T14:57:18Z</time>
      </trkpt>
      <trkpt lat="43.76951" lon="7.06799">
        <ele>928.2</ele>
        <time>2020-09-16T14:57:35Z</time>
      </trkpt>
      <trkpt lat="43.76935" lon="7.06811">
        <ele>928.1</ele>
        <time>2020-09-16T14:57:48Z</time>
      </trkpt>
      <trkpt lat="43.76918" lon="7.06824">
        <ele>928</ele>
        <time>2020-09-16T14:58:02Z</time>
      </trkpt>
      <trkpt lat="43.76904" lon="7.06842">
        <ele>927.7</ele>
        <time>2020-09-16T14:58:15Z</time>
      </trkpt>
      <trkpt lat="43.76893" lon="7.06855">
        <ele>927.2</ele>
        <time>2020-09-16T14:58:26Z</time>
      </trkpt>
      <trkpt lat="43.76884" lon="7.06869">
        <ele>924.7</ele>
        <time>2020-09-16T14:58:39Z</time>
      </trkpt>
      <trkpt lat="43.76879" lon="7.06875">
        <ele>923.8</ele>
        <time>2020-09-16T14:58:44Z</time>
      </trkpt>
      <trkpt lat="43.76872" lon="7.06889">
        <ele>923.8</ele>
        <time>2020-09-16T14:58:53Z</time>
      </trkpt>
      <trkpt lat="43.76864" lon="7.06902">
        <ele>923.8</ele>
        <time>2020-09-16T14:59:01Z</time>
      </trkpt>
      <trkpt lat="43.76861" lon="7.06907">
        <ele>923.8</ele>
        <time>2020-09-16T14:59:04Z</time>
      </trkpt>
      <trkpt lat="43.76854" lon="7.06916">
        <ele>923.8</ele>
        <time>2020-09-16T14:59:12Z</time>
      </trkpt>
      <trkpt lat="43.76851" lon="7.06923">
        <ele>923.8</ele>
        <time>2020-09-16T14:59:16Z</time>
      </trkpt>
      <trkpt lat="43.76847" lon="7.06927">
        <ele>923.8</ele>
        <time>2020-09-16T14:59:19Z</time>
      </trkpt>
      <trkpt lat="43.76841" lon="7.06938">
        <ele>923.8</ele>
        <time>2020-09-16T14:59:36Z</time>
      </trkpt>
      <trkpt lat="43.76842" lon="7.0695">
        <ele>923.8</ele>
        <time>2020-09-16T14:59:44Z</time>
      </trkpt>
      <trkpt lat="43.76836" lon="7.06965">
        <ele>923.8</ele>
        <time>2020-09-16T14:59:58Z</time>
      </trkpt>
      <trkpt lat="43.76834" lon="7.0697">
        <ele>923.8</ele>
        <time>2020-09-16T15:00:40Z</time>
      </trkpt>
      <trkpt lat="43.76839" lon="7.06965">
        <ele>923.8</ele>
        <time>2020-09-16T15:01:11Z</time>
      </trkpt>
      <trkpt lat="43.76837" lon="7.0696">
        <ele>923.8</ele>
        <time>2020-09-16T15:01:19Z</time>
      </trkpt>
      <trkpt lat="43.76837" lon="7.06967">
        <ele>923.8</ele>
        <time>2020-09-16T15:01:47Z</time>
      </trkpt>
      <trkpt lat="43.7684" lon="7.06974">
        <ele>923.8</ele>
        <time>2020-09-16T15:03:04Z</time>
      </trkpt>
      <trkpt lat="43.76842" lon="7.06973">
        <ele>924</ele>
        <time>2020-09-16T15:04:00Z</time>
      </trkpt>
      <trkpt lat="43.76842" lon="7.06973">
        <ele>924.1</ele>
        <time>2020-09-16T15:04:00Z</time>
      </trkpt>
      <trkpt lat="43.76842" lon="7.06973">
        <ele>924.1</ele>
        <time>2020-09-16T15:04:02Z</time>
      </trkpt>
    </trkseg>
  </trk>
</gpx>